SAA308 FACT-SBGR
Flight info
| Callsign | SAA308 |
|---|---|
| Flight time | 8h 17m |
| Altitude | 36000 |
| Route | IMSOM1A IMSOM UQ36 APKIN UL224 ITMEK/N0462F280 UL224 ITGIV/N0480F360 UL224 RONER/N0475F380 UL224 ATORO/N0466F400 UL224 ADA UL340 ESORU UZ10 EDMUS |
| Aircraft | A339/H-SADE1E2E3GHIJ3J5M1P2RWXY/LB2D1 |
Departure
| Time | 2026-05-05 10:15 |
|---|---|
| Airport | Cape Town International Airport (FACT) |
Arrival
| Time | 2026-05-05 18:32 |
|---|---|
| Airport | São Paulo/Guarulhos–Governor André Franco Montoro International Airport (SBGR) |
| Time | Latitude | Longitude | Altitude | Speed | Heading |
|---|---|---|---|---|---|
| 2026-05-05 09:59 | -33.97027 | 18.59868 | 166 ft | 0 kts | 255° |
| 2026-05-05 10:02 | -33.97026 | 18.59874 | 166 ft | 2 kts | 255° |
| 2026-05-05 10:03 | -33.97023 | 18.59886 | 166 ft | 0 kts | 255° |
| 2026-05-05 10:03 | -33.97019 | 18.59902 | 166 ft | 2 kts | 239° |
| 2026-05-05 10:03 | -33.97009 | 18.59917 | 166 ft | 2 kts | 220° |
| 2026-05-05 10:03 | -33.96997 | 18.59927 | 166 ft | 2 kts | 203° |
| 2026-05-05 10:04 | -33.96983 | 18.59932 | 166 ft | 2 kts | 186° |
| 2026-05-05 10:04 | -33.96967 | 18.59932 | 166 ft | 1 kts | 168° |
| 2026-05-05 10:04 | -33.96961 | 18.59930 | 166 ft | 1 kts | 164° |
| 2026-05-05 10:04 | -33.96960 | 18.59930 | 166 ft | 0 kts | 164° |
| 2026-05-05 10:07 | -33.96962 | 18.59930 | 166 ft | 0 kts | 164° |
| 2026-05-05 10:07 | -33.96972 | 18.59934 | 166 ft | 2 kts | 165° |
| 2026-05-05 10:07 | -33.96994 | 18.59941 | 166 ft | 4 kts | 165° |
| 2026-05-05 10:08 | -33.97027 | 18.59951 | 166 ft | 5 kts | 165° |
| 2026-05-05 10:08 | -33.97071 | 18.59961 | 166 ft | 7 kts | 172° |
| 2026-05-05 10:08 | -33.97124 | 18.59973 | 166 ft | 8 kts | 166° |
| 2026-05-05 10:08 | -33.97187 | 18.59991 | 166 ft | 10 kts | 166° |
| 2026-05-05 10:09 | -33.97266 | 18.60015 | 166 ft | 12 kts | 166° |
| 2026-05-05 10:09 | -33.97357 | 18.60043 | 166 ft | 14 kts | 165° |
| 2026-05-05 10:09 | -33.97458 | 18.60077 | 166 ft | 15 kts | 162° |
| 2026-05-05 10:09 | -33.97564 | 18.60129 | 166 ft | 17 kts | 157° |
| 2026-05-05 10:10 | -33.97678 | 18.60184 | 166 ft | 18 kts | 159° |
| 2026-05-05 10:10 | -33.97799 | 18.60236 | 166 ft | 18 kts | 160° |
| 2026-05-05 10:10 | -33.97926 | 18.60290 | 166 ft | 19 kts | 160° |
| 2026-05-05 10:10 | -33.98053 | 18.60345 | 166 ft | 18 kts | 160° |
| 2026-05-05 10:11 | -33.98175 | 18.60397 | 166 ft | 18 kts | 160° |
| 2026-05-05 10:11 | -33.98296 | 18.60449 | 166 ft | 18 kts | 160° |
| 2026-05-05 10:11 | -33.98413 | 18.60499 | 166 ft | 17 kts | 160° |
| 2026-05-05 10:11 | -33.98528 | 18.60549 | 166 ft | 17 kts | 159° |
| 2026-05-05 10:12 | -33.98642 | 18.60597 | 166 ft | 17 kts | 160° |
| 2026-05-05 10:12 | -33.98744 | 18.60642 | 166 ft | 12 kts | 160° |
| 2026-05-05 10:12 | -33.98794 | 18.60696 | 166 ft | 10 kts | 97° |
| 2026-05-05 10:12 | -33.98781 | 18.60782 | 166 ft | 10 kts | 76° |
| 2026-05-05 10:13 | -33.98760 | 18.60869 | 166 ft | 8 kts | 58° |
| 2026-05-05 10:13 | -33.98724 | 18.60876 | 166 ft | 6 kts | 358° |
| 2026-05-05 10:13 | -33.98695 | 18.60870 | 166 ft | 0 kts | 345° |
| 2026-05-05 10:13 | -33.98694 | 18.60870 | 166 ft | 1 kts | 345° |
| 2026-05-05 10:14 | -33.98521 | 18.60815 | 166 ft | 57 kts | 345° |
| 2026-05-05 10:14 | -33.97940 | 18.60631 | 166 ft | 114 kts | 344° |
| 2026-05-05 10:14 | -33.97002 | 18.60331 | 166 ft | 163 kts | 344° |
| 2026-05-05 10:14 | -33.95818 | 18.59959 | 463 ft | 180 kts | 346° |
| 2026-05-05 10:15 | -33.94619 | 18.59541 | 1061 ft | 180 kts | 344° |
| 2026-05-05 10:15 | -33.93430 | 18.59112 | 1705 ft | 177 kts | 343° |
| 2026-05-05 10:15 | -33.92250 | 18.58689 | 2135 ft | 181 kts | 342° |
| 2026-05-05 10:15 | -33.91121 | 18.57941 | 2360 ft | 193 kts | 311° |
| 2026-05-05 10:16 | -33.90302 | 18.56595 | 2604 ft | 205 kts | 303° |
| 2026-05-05 10:16 | -33.89504 | 18.55110 | 2848 ft | 219 kts | 305° |
| 2026-05-05 10:16 | -33.88392 | 18.53815 | 3098 ft | 232 kts | 327° |
| 2026-05-05 10:16 | -33.86944 | 18.52790 | 3373 ft | 246 kts | 330° |
| 2026-05-05 10:17 | -33.85407 | 18.51737 | 3683 ft | 259 kts | 326° |
| 2026-05-05 10:17 | -33.84212 | 18.50127 | 4152 ft | 265 kts | 292° |
| 2026-05-05 10:17 | -33.83912 | 18.47959 | 4734 ft | 266 kts | 262° |
| 2026-05-05 10:17 | -33.84314 | 18.45809 | 5259 ft | 268 kts | 255° |
| 2026-05-05 10:18 | -33.84791 | 18.43616 | 5784 ft | 272 kts | 255° |
| 2026-05-05 10:18 | -33.85255 | 18.41432 | 6313 ft | 274 kts | 255° |
| 2026-05-05 10:18 | -33.85722 | 18.39193 | 6843 ft | 276 kts | 255° |
| 2026-05-05 10:18 | -33.86183 | 18.36960 | 7348 ft | 279 kts | 255° |
| 2026-05-05 10:19 | -33.86648 | 18.34684 | 7849 ft | 281 kts | 255° |
| 2026-05-05 10:19 | -33.87114 | 18.32392 | 8357 ft | 284 kts | 255° |
| 2026-05-05 10:19 | -33.87577 | 18.30104 | 8864 ft | 286 kts | 255° |
| 2026-05-05 10:19 | -33.88048 | 18.27776 | 9363 ft | 288 kts | 255° |
| 2026-05-05 10:20 | -33.88522 | 18.25433 | 9843 ft | 291 kts | 255° |
| 2026-05-05 10:20 | -33.89000 | 18.23061 | 10306 ft | 295 kts | 255° |
| 2026-05-05 10:20 | -33.89496 | 18.20605 | 10541 ft | 307 kts | 255° |
| 2026-05-05 10:20 | -33.90009 | 18.18056 | 10777 ft | 320 kts | 255° |
| 2026-05-05 10:21 | -33.90542 | 18.15408 | 11000 ft | 332 kts | 255° |
| 2026-05-05 10:21 | -33.91097 | 18.12643 | 11242 ft | 344 kts | 255° |
| 2026-05-05 10:21 | -33.91662 | 18.09816 | 11467 ft | 356 kts | 255° |
| 2026-05-05 10:21 | -33.92255 | 18.06848 | 11687 ft | 368 kts | 254° |
| 2026-05-05 10:22 | -33.92860 | 18.03824 | 11905 ft | 380 kts | 255° |
| 2026-05-05 10:22 | -33.93470 | 18.00677 | 12299 ft | 386 kts | 256° |
| 2026-05-05 10:22 | -33.93971 | 17.97540 | 12785 ft | 389 kts | 257° |
| 2026-05-05 10:22 | -33.94468 | 17.94315 | 13271 ft | 392 kts | 257° |
| 2026-05-05 10:23 | -33.94965 | 17.91071 | 13766 ft | 395 kts | 257° |
| 2026-05-05 10:23 | -33.95465 | 17.87799 | 14248 ft | 398 kts | 256° |
| 2026-05-05 10:23 | -33.95959 | 17.84551 | 14724 ft | 401 kts | 256° |
| 2026-05-05 10:23 | -33.96464 | 17.81242 | 15190 ft | 404 kts | 256° |
| 2026-05-05 10:24 | -33.96973 | 17.77909 | 15650 ft | 407 kts | 256° |
| 2026-05-05 10:24 | -33.97488 | 17.74542 | 16118 ft | 410 kts | 256° |
| 2026-05-05 10:24 | -33.97998 | 17.71179 | 16583 ft | 413 kts | 256° |
| 2026-05-05 10:24 | -33.98517 | 17.67764 | 17036 ft | 416 kts | 255° |
| 2026-05-05 10:25 | -33.99039 | 17.64323 | 17495 ft | 418 kts | 255° |
| 2026-05-05 10:25 | -33.99558 | 17.60895 | 17938 ft | 421 kts | 255° |
| 2026-05-05 10:25 | -34.00079 | 17.57439 | 18379 ft | 424 kts | 255° |
| 2026-05-05 10:25 | -34.00605 | 17.53949 | 18815 ft | 426 kts | 255° |
| 2026-05-05 10:26 | -34.01140 | 17.50389 | 19258 ft | 429 kts | 255° |
| 2026-05-05 10:26 | -34.01669 | 17.46861 | 19693 ft | 431 kts | 255° |
| 2026-05-05 10:26 | -34.02201 | 17.43314 | 20113 ft | 433 kts | 254° |
| 2026-05-05 10:26 | -34.02736 | 17.39728 | 20520 ft | 436 kts | 254° |
| 2026-05-05 10:27 | -34.03273 | 17.36123 | 20922 ft | 438 kts | 254° |
| 2026-05-05 10:27 | -34.03810 | 17.32526 | 21317 ft | 440 kts | 255° |
| 2026-05-05 10:27 | -34.04354 | 17.28868 | 21700 ft | 442 kts | 255° |
| 2026-05-05 10:27 | -34.04890 | 17.25241 | 22064 ft | 444 kts | 255° |
| 2026-05-05 10:28 | -34.05434 | 17.21558 | 22441 ft | 446 kts | 255° |
| 2026-05-05 10:28 | -34.05977 | 17.17887 | 22789 ft | 448 kts | 255° |
| 2026-05-05 10:28 | -34.06446 | 17.14690 | 23096 ft | 450 kts | 255° |
| 2026-05-05 10:28 | -34.06990 | 17.10977 | 23469 ft | 451 kts | 254° |
| 2026-05-05 10:29 | -34.07536 | 17.07245 | 23823 ft | 453 kts | 254° |
| 2026-05-05 10:29 | -34.08074 | 17.03501 | 24164 ft | 455 kts | 256° |
| 2026-05-05 10:29 | -34.08474 | 16.99726 | 24448 ft | 459 kts | 259° |
| 2026-05-05 10:29 | -34.08751 | 16.95874 | 24726 ft | 461 kts | 259° |
| 2026-05-05 10:30 | -34.09005 | 16.92002 | 24992 ft | 463 kts | 260° |
| 2026-05-05 10:30 | -34.09251 | 16.88125 | 25240 ft | 465 kts | 259° |
| 2026-05-05 10:30 | -34.09497 | 16.84274 | 25498 ft | 467 kts | 259° |
| 2026-05-05 10:30 | -34.09748 | 16.80348 | 25719 ft | 468 kts | 260° |
| 2026-05-05 10:31 | -34.09995 | 16.76471 | 25978 ft | 470 kts | 259° |
| 2026-05-05 10:31 | -34.10243 | 16.72548 | 26251 ft | 471 kts | 259° |
| 2026-05-05 10:31 | -34.10493 | 16.68613 | 26471 ft | 473 kts | 259° |
| 2026-05-05 10:31 | -34.10742 | 16.64644 | 26698 ft | 474 kts | 259° |
| 2026-05-05 10:32 | -34.10992 | 16.60676 | 26922 ft | 476 kts | 259° |
| 2026-05-05 10:32 | -34.11241 | 16.56695 | 27179 ft | 477 kts | 259° |
| 2026-05-05 10:32 | -34.11489 | 16.52710 | 27411 ft | 479 kts | 259° |
| 2026-05-05 10:32 | -34.11735 | 16.48692 | 27637 ft | 480 kts | 259° |
| 2026-05-05 10:33 | -34.11979 | 16.44721 | 27846 ft | 481 kts | 259° |
| 2026-05-05 10:33 | -34.12224 | 16.40696 | 28006 ft | 484 kts | 259° |
| 2026-05-05 10:33 | -34.12715 | 16.32621 | 28015 ft | 483 kts | 259° |
| 2026-05-05 10:34 | -34.13198 | 16.24569 | 28022 ft | 483 kts | 259° |
| 2026-05-05 10:34 | -34.13679 | 16.16480 | 28025 ft | 483 kts | 259° |
| 2026-05-05 10:35 | -34.14152 | 16.08422 | 28023 ft | 483 kts | 259° |
| 2026-05-05 10:35 | -34.14616 | 16.00384 | 28029 ft | 483 kts | 259° |
| 2026-05-05 10:36 | -34.15081 | 15.92314 | 28008 ft | 483 kts | 259° |
| 2026-05-05 10:36 | -34.15540 | 15.84235 | 28019 ft | 484 kts | 258° |
| 2026-05-05 10:37 | -34.15987 | 15.76189 | 28004 ft | 483 kts | 258° |
| 2026-05-05 10:37 | -34.16437 | 15.68069 | 28029 ft | 484 kts | 258° |
| 2026-05-05 10:38 | -34.16880 | 15.60011 | 28044 ft | 483 kts | 258° |
| 2026-05-05 10:38 | -34.17315 | 15.51938 | 28014 ft | 484 kts | 257° |
| 2026-05-05 10:39 | -34.17746 | 15.43878 | 28037 ft | 484 kts | 257° |
| 2026-05-05 10:39 | -34.18177 | 15.35782 | 28032 ft | 485 kts | 257° |
| 2026-05-05 10:40 | -34.18598 | 15.27678 | 28032 ft | 486 kts | 258° |
| 2026-05-05 10:40 | -34.19017 | 15.19513 | 28030 ft | 486 kts | 257° |
| 2026-05-05 10:41 | -34.19423 | 15.11420 | 28042 ft | 485 kts | 257° |
| 2026-05-05 10:41 | -34.19836 | 15.03256 | 28048 ft | 484 kts | 257° |
| 2026-05-05 10:42 | -34.20438 | 14.91100 | 28046 ft | 486 kts | 256° |
| 2026-05-05 10:43 | -34.20838 | 14.83029 | 28060 ft | 484 kts | 256° |
| 2026-05-05 10:43 | -34.21233 | 14.74942 | 28061 ft | 482 kts | 256° |
| 2026-05-05 10:44 | -34.21622 | 14.66831 | 28067 ft | 481 kts | 256° |
| 2026-05-05 10:44 | -34.22001 | 14.58796 | 28081 ft | 482 kts | 255° |
| 2026-05-05 10:45 | -34.22375 | 14.50770 | 28084 ft | 479 kts | 255° |
| 2026-05-05 10:45 | -34.22745 | 14.42739 | 28096 ft | 480 kts | 255° |
| 2026-05-05 10:46 | -34.23108 | 14.34717 | 28082 ft | 481 kts | 255° |
| 2026-05-05 10:46 | -34.23465 | 14.26690 | 28101 ft | 477 kts | 255° |
| 2026-05-05 10:47 | -34.23817 | 14.18703 | 28104 ft | 477 kts | 255° |
| 2026-05-05 10:47 | -34.24167 | 14.10690 | 28100 ft | 477 kts | 255° |
| 2026-05-05 10:48 | -34.24505 | 14.02745 | 28109 ft | 475 kts | 255° |
| 2026-05-05 10:48 | -34.24840 | 13.94797 | 28120 ft | 475 kts | 254° |
| 2026-05-05 10:49 | -34.25176 | 13.86796 | 28125 ft | 478 kts | 255° |
| 2026-05-05 10:49 | -34.25502 | 13.78810 | 28132 ft | 476 kts | 254° |
| 2026-05-05 10:50 | -34.25820 | 13.70842 | 28136 ft | 472 kts | 254° |
| 2026-05-05 10:50 | -34.26133 | 13.62924 | 28141 ft | 473 kts | 254° |
| 2026-05-05 10:51 | -34.26443 | 13.54992 | 28145 ft | 474 kts | 254° |
| 2026-05-05 10:51 | -34.26751 | 13.47026 | 28151 ft | 473 kts | 254° |
| 2026-05-05 10:52 | -34.27043 | 13.39142 | 28145 ft | 472 kts | 255° |
| 2026-05-05 10:52 | -34.27334 | 13.31234 | 28149 ft | 472 kts | 255° |
| 2026-05-05 10:53 | -34.27627 | 13.23319 | 28159 ft | 473 kts | 255° |
| 2026-05-05 10:53 | -34.27903 | 13.15421 | 28158 ft | 469 kts | 255° |
| 2026-05-05 10:54 | -34.28176 | 13.07554 | 28164 ft | 466 kts | 255° |
| 2026-05-05 10:54 | -34.28447 | 12.99737 | 28165 ft | 471 kts | 255° |
| 2026-05-05 10:55 | -34.28713 | 12.91846 | 28164 ft | 472 kts | 255° |
| 2026-05-05 10:55 | -34.28980 | 12.83915 | 28173 ft | 473 kts | 255° |
| 2026-05-05 10:56 | -34.29233 | 12.76026 | 28179 ft | 471 kts | 255° |
| 2026-05-05 10:56 | -34.29480 | 12.68179 | 28184 ft | 467 kts | 255° |
| 2026-05-05 10:57 | -34.29725 | 12.60341 | 28182 ft | 467 kts | 255° |
| 2026-05-05 10:57 | -34.29972 | 12.52485 | 28191 ft | 473 kts | 256° |
| 2026-05-05 10:58 | -34.30205 | 12.44552 | 28193 ft | 471 kts | 256° |
| 2026-05-05 10:58 | -34.30432 | 12.36676 | 28203 ft | 469 kts | 256° |
| 2026-05-05 10:59 | -34.30658 | 12.28827 | 28201 ft | 470 kts | 257° |
| 2026-05-05 10:59 | -34.30884 | 12.20921 | 28213 ft | 473 kts | 257° |
| 2026-05-05 11:00 | -34.31094 | 12.13033 | 28216 ft | 471 kts | 257° |
| 2026-05-05 11:00 | -34.31307 | 12.05104 | 28214 ft | 471 kts | 257° |
| 2026-05-05 11:01 | -34.31512 | 11.97228 | 28218 ft | 473 kts | 257° |
| 2026-05-05 11:01 | -34.31711 | 11.89305 | 28223 ft | 470 kts | 258° |
| 2026-05-05 11:02 | -34.31903 | 11.81409 | 28226 ft | 471 kts | 258° |
| 2026-05-05 11:02 | -34.32094 | 11.73566 | 28228 ft | 469 kts | 258° |
| 2026-05-05 11:03 | -34.32276 | 11.65707 | 28232 ft | 467 kts | 258° |
| 2026-05-05 11:03 | -34.32457 | 11.57872 | 28239 ft | 467 kts | 258° |
| 2026-05-05 11:04 | -34.32630 | 11.50048 | 28240 ft | 466 kts | 258° |
| 2026-05-05 11:04 | -34.32793 | 11.42396 | 28241 ft | 465 kts | 258° |
| 2026-05-05 11:05 | -34.32958 | 11.34604 | 28244 ft | 465 kts | 259° |
| 2026-05-05 11:05 | -34.33117 | 11.26804 | 28240 ft | 465 kts | 259° |
| 2026-05-05 11:06 | -34.33270 | 11.18997 | 28242 ft | 465 kts | 259° |
| 2026-05-05 11:06 | -34.33418 | 11.11216 | 28241 ft | 464 kts | 259° |
| 2026-05-05 11:07 | -34.33560 | 11.03452 | 28247 ft | 464 kts | 259° |
| 2026-05-05 11:07 | -34.33699 | 10.95671 | 28256 ft | 462 kts | 260° |
| 2026-05-05 11:08 | -34.33830 | 10.87950 | 28258 ft | 462 kts | 260° |
| 2026-05-05 11:08 | -34.33958 | 10.80156 | 28264 ft | 462 kts | 260° |
| 2026-05-05 11:09 | -34.34082 | 10.72428 | 28270 ft | 461 kts | 260° |
| 2026-05-05 11:09 | -34.34199 | 10.64651 | 28271 ft | 463 kts | 260° |
| 2026-05-05 11:10 | -34.34310 | 10.56950 | 28273 ft | 461 kts | 261° |
| 2026-05-05 11:10 | -34.34422 | 10.49155 | 28280 ft | 463 kts | 261° |
| 2026-05-05 11:11 | -34.34524 | 10.41422 | 28280 ft | 463 kts | 261° |
| 2026-05-05 11:11 | -34.34623 | 10.33649 | 28285 ft | 461 kts | 261° |
| 2026-05-05 11:12 | -34.34717 | 10.25921 | 28286 ft | 463 kts | 262° |
| 2026-05-05 11:12 | -34.34805 | 10.18142 | 28287 ft | 463 kts | 262° |
| 2026-05-05 11:13 | -34.34890 | 10.10415 | 28292 ft | 463 kts | 262° |
| 2026-05-05 11:13 | -34.34967 | 10.02641 | 28294 ft | 462 kts | 262° |
| 2026-05-05 11:14 | -34.35045 | 9.94881 | 28292 ft | 461 kts | 262° |
| 2026-05-05 11:14 | -34.35122 | 9.87180 | 28293 ft | 461 kts | 262° |
| 2026-05-05 11:15 | -34.35194 | 9.79430 | 28293 ft | 462 kts | 262° |
| 2026-05-05 11:15 | -34.35262 | 9.71672 | 28296 ft | 461 kts | 262° |
| 2026-05-05 11:16 | -34.35325 | 9.63892 | 28301 ft | 461 kts | 263° |
| 2026-05-05 11:16 | -34.35382 | 9.56203 | 28302 ft | 460 kts | 263° |
| 2026-05-05 11:17 | -34.35436 | 9.48474 | 28307 ft | 461 kts | 263° |
| 2026-05-05 11:17 | -34.35484 | 9.40705 | 28308 ft | 461 kts | 263° |
| 2026-05-05 11:18 | -34.35525 | 9.32936 | 28315 ft | 461 kts | 263° |
| 2026-05-05 11:18 | -34.35564 | 9.25215 | 28313 ft | 460 kts | 263° |
| 2026-05-05 11:19 | -34.35598 | 9.17476 | 28315 ft | 461 kts | 264° |
| 2026-05-05 11:19 | -34.35626 | 9.09748 | 28320 ft | 461 kts | 264° |
| 2026-05-05 11:20 | -34.35650 | 9.02016 | 28318 ft | 461 kts | 264° |
| 2026-05-05 11:20 | -34.35667 | 8.94283 | 28323 ft | 462 kts | 264° |
| 2026-05-05 11:21 | -34.35682 | 8.86587 | 28327 ft | 461 kts | 264° |
| 2026-05-05 11:21 | -34.35690 | 8.78840 | 28328 ft | 459 kts | 264° |
| 2026-05-05 11:22 | -34.35693 | 8.71110 | 28330 ft | 460 kts | 264° |
| 2026-05-05 11:22 | -34.35693 | 8.63428 | 28328 ft | 460 kts | 264° |
| 2026-05-05 11:23 | -34.35688 | 8.55731 | 28332 ft | 460 kts | 264° |
| 2026-05-05 11:23 | -34.35679 | 8.47976 | 28334 ft | 460 kts | 265° |
| 2026-05-05 11:24 | -34.35662 | 8.40287 | 28334 ft | 461 kts | 265° |
| 2026-05-05 11:24 | -34.35644 | 8.32528 | 28342 ft | 460 kts | 265° |
| 2026-05-05 11:25 | -34.35619 | 8.24795 | 28350 ft | 461 kts | 266° |
| 2026-05-05 11:25 | -34.35588 | 8.17076 | 28354 ft | 460 kts | 266° |
| 2026-05-05 11:26 | -34.35552 | 8.09374 | 28354 ft | 460 kts | 266° |
| 2026-05-05 11:26 | -34.35513 | 8.01666 | 28351 ft | 460 kts | 266° |
| 2026-05-05 11:27 | -34.35468 | 7.93949 | 28353 ft | 460 kts | 266° |
| 2026-05-05 11:27 | -34.35420 | 7.86229 | 28362 ft | 461 kts | 266° |
| 2026-05-05 11:28 | -34.35367 | 7.78513 | 28361 ft | 460 kts | 266° |
| 2026-05-05 11:28 | -34.35306 | 7.70741 | 28364 ft | 460 kts | 266° |
| 2026-05-05 11:29 | -34.35242 | 7.63016 | 28360 ft | 460 kts | 266° |
| 2026-05-05 11:29 | -34.35174 | 7.55302 | 28359 ft | 461 kts | 266° |
| 2026-05-05 11:30 | -34.35101 | 7.47572 | 28362 ft | 461 kts | 267° |
| 2026-05-05 11:30 | -34.35023 | 7.39817 | 28365 ft | 461 kts | 267° |
| 2026-05-05 11:31 | -34.34939 | 7.32125 | 28368 ft | 460 kts | 267° |
| 2026-05-05 11:31 | -34.34851 | 7.24391 | 28364 ft | 460 kts | 268° |
| 2026-05-05 11:32 | -34.34758 | 7.16672 | 28366 ft | 460 kts | 268° |
| 2026-05-05 11:32 | -34.34660 | 7.08980 | 28366 ft | 461 kts | 268° |
| 2026-05-05 11:33 | -34.34557 | 7.01232 | 28369 ft | 461 kts | 268° |
| 2026-05-05 11:33 | -34.34450 | 6.93488 | 28369 ft | 462 kts | 268° |
| 2026-05-05 11:34 | -34.34338 | 6.85743 | 28369 ft | 461 kts | 268° |
| 2026-05-05 11:34 | -34.34220 | 6.78010 | 28369 ft | 461 kts | 268° |
| 2026-05-05 11:35 | -34.34098 | 6.70267 | 28370 ft | 460 kts | 268° |
| 2026-05-05 11:35 | -34.33970 | 6.62560 | 28371 ft | 460 kts | 268° |
| 2026-05-05 11:36 | -34.33840 | 6.54863 | 28373 ft | 460 kts | 268° |
| 2026-05-05 11:36 | -34.33704 | 6.47153 | 28372 ft | 459 kts | 269° |
| 2026-05-05 11:37 | -34.33561 | 6.39421 | 28376 ft | 460 kts | 269° |
| 2026-05-05 11:37 | -34.33416 | 6.31724 | 28384 ft | 460 kts | 269° |
| 2026-05-05 11:38 | -34.33264 | 6.24008 | 28379 ft | 459 kts | 269° |
| 2026-05-05 11:38 | -34.33109 | 6.16327 | 28382 ft | 458 kts | 269° |
| 2026-05-05 11:39 | -34.32950 | 6.08608 | 28385 ft | 459 kts | 269° |
| 2026-05-05 11:39 | -34.32784 | 6.00919 | 28387 ft | 459 kts | 269° |
| 2026-05-05 11:40 | -34.32614 | 5.93227 | 28388 ft | 459 kts | 269° |
| 2026-05-05 11:40 | -34.32440 | 5.85517 | 28387 ft | 459 kts | 269° |
| 2026-05-05 11:41 | -34.32259 | 5.77837 | 28388 ft | 458 kts | 269° |
| 2026-05-05 11:41 | -34.32076 | 5.70178 | 28390 ft | 457 kts | 269° |
| 2026-05-05 11:42 | -34.31888 | 5.62506 | 28387 ft | 457 kts | 269° |
| 2026-05-05 11:42 | -34.31696 | 5.54882 | 28392 ft | 456 kts | 269° |
| 2026-05-05 11:43 | -34.31497 | 5.47204 | 28389 ft | 456 kts | 269° |
| 2026-05-05 11:43 | -34.31295 | 5.39567 | 28391 ft | 455 kts | 269° |
| 2026-05-05 11:44 | -34.31089 | 5.31956 | 28392 ft | 455 kts | 270° |
| 2026-05-05 11:44 | -34.30879 | 5.24332 | 28389 ft | 454 kts | 270° |
| 2026-05-05 11:45 | -34.30664 | 5.16730 | 28389 ft | 454 kts | 270° |
| 2026-05-05 11:45 | -34.30442 | 5.09083 | 28376 ft | 454 kts | 270° |
| 2026-05-05 11:46 | -34.30219 | 5.01492 | 28384 ft | 453 kts | 270° |
| 2026-05-05 11:46 | -34.29990 | 4.93929 | 28384 ft | 451 kts | 270° |
| 2026-05-05 11:47 | -34.29756 | 4.86381 | 28391 ft | 451 kts | 270° |
| 2026-05-05 11:47 | -34.29519 | 4.78814 | 28390 ft | 451 kts | 270° |
| 2026-05-05 11:48 | -34.29156 | 4.67464 | 28393 ft | 451 kts | 270° |
| 2026-05-05 11:48 | -34.28905 | 4.59879 | 28395 ft | 450 kts | 270° |
| 2026-05-05 11:49 | -34.28653 | 4.52372 | 28395 ft | 450 kts | 270° |
| 2026-05-05 11:49 | -34.28395 | 4.44822 | 28396 ft | 450 kts | 270° |
| 2026-05-05 11:50 | -34.28131 | 4.37261 | 28399 ft | 449 kts | 270° |
| 2026-05-05 11:50 | -34.27866 | 4.29778 | 28406 ft | 448 kts | 271° |
| 2026-05-05 11:51 | -34.27596 | 4.22258 | 28406 ft | 448 kts | 271° |
| 2026-05-05 11:51 | -34.27323 | 4.14775 | 28408 ft | 448 kts | 271° |
| 2026-05-05 11:52 | -34.27043 | 4.07268 | 28408 ft | 448 kts | 271° |
| 2026-05-05 11:52 | -34.26760 | 3.99763 | 28415 ft | 447 kts | 271° |
| 2026-05-05 11:53 | -34.26471 | 3.92298 | 28417 ft | 447 kts | 271° |
| 2026-05-05 11:53 | -34.26179 | 3.84813 | 28421 ft | 447 kts | 271° |
| 2026-05-05 11:54 | -34.25882 | 3.77319 | 28423 ft | 447 kts | 271° |
| 2026-05-05 11:54 | -34.25581 | 3.69850 | 28426 ft | 446 kts | 271° |
| 2026-05-05 11:55 | -34.25277 | 3.62399 | 28431 ft | 446 kts | 271° |
| 2026-05-05 11:55 | -34.24968 | 3.54939 | 28426 ft | 445 kts | 271° |
| 2026-05-05 11:56 | -34.24654 | 3.47467 | 28429 ft | 445 kts | 271° |
| 2026-05-05 11:56 | -34.24336 | 3.40028 | 28424 ft | 444 kts | 271° |
| 2026-05-05 11:57 | -34.24013 | 3.32590 | 28426 ft | 445 kts | 272° |
| 2026-05-05 11:57 | -34.23685 | 3.25143 | 28418 ft | 445 kts | 272° |
| 2026-05-05 11:58 | -34.23354 | 3.17697 | 28414 ft | 444 kts | 272° |
| 2026-05-05 11:58 | -34.23019 | 3.10263 | 28406 ft | 445 kts | 272° |
| 2026-05-05 11:59 | -34.22680 | 3.02858 | 28403 ft | 444 kts | 272° |
| 2026-05-05 11:59 | -34.22336 | 2.95412 | 28406 ft | 443 kts | 272° |
| 2026-05-05 12:00 | -34.21989 | 2.88048 | 28407 ft | 442 kts | 272° |
| 2026-05-05 12:00 | -34.21637 | 2.80652 | 28411 ft | 441 kts | 272° |
| 2026-05-05 12:01 | -34.21279 | 2.73245 | 28419 ft | 442 kts | 272° |
| 2026-05-05 12:01 | -34.20918 | 2.65833 | 28426 ft | 442 kts | 272° |
| 2026-05-05 12:02 | -34.20553 | 2.58443 | 28429 ft | 442 kts | 272° |
| 2026-05-05 12:02 | -34.20186 | 2.51075 | 28425 ft | 442 kts | 272° |
| 2026-05-05 12:03 | -34.19812 | 2.43696 | 28436 ft | 441 kts | 272° |
| 2026-05-05 12:03 | -34.19433 | 2.36300 | 28432 ft | 441 kts | 272° |
| 2026-05-05 12:04 | -34.19054 | 2.28977 | 28442 ft | 440 kts | 273° |
| 2026-05-05 12:04 | -34.18668 | 2.21604 | 28444 ft | 440 kts | 273° |
| 2026-05-05 12:05 | -34.18279 | 2.14260 | 28444 ft | 440 kts | 273° |
| 2026-05-05 12:05 | -34.17884 | 2.06897 | 28446 ft | 440 kts | 273° |
| 2026-05-05 12:06 | -34.17487 | 1.99563 | 28444 ft | 439 kts | 273° |
| 2026-05-05 12:06 | -34.17085 | 1.92233 | 28445 ft | 439 kts | 273° |
| 2026-05-05 12:07 | -34.16676 | 1.84859 | 28433 ft | 441 kts | 273° |
| 2026-05-05 12:07 | -34.16266 | 1.77529 | 28428 ft | 441 kts | 273° |
| 2026-05-05 12:08 | -34.15847 | 1.70139 | 28424 ft | 440 kts | 273° |
| 2026-05-05 12:08 | -34.15428 | 1.62812 | 28426 ft | 440 kts | 273° |
| 2026-05-05 12:09 | -34.15002 | 1.55437 | 28422 ft | 439 kts | 273° |
| 2026-05-05 12:09 | -34.14576 | 1.48133 | 28421 ft | 439 kts | 273° |
| 2026-05-05 12:10 | -34.14140 | 1.40760 | 28434 ft | 439 kts | 273° |
| 2026-05-05 12:10 | -34.13702 | 1.33424 | 28438 ft | 439 kts | 273° |
| 2026-05-05 12:11 | -34.13258 | 1.26059 | 28441 ft | 439 kts | 273° |
| 2026-05-05 12:11 | -34.12814 | 1.18753 | 28439 ft | 440 kts | 273° |
| 2026-05-05 12:12 | -34.12363 | 1.11410 | 28445 ft | 440 kts | 273° |
| 2026-05-05 12:12 | -34.11907 | 1.04029 | 28441 ft | 440 kts | 273° |
| 2026-05-05 12:13 | -34.11447 | 0.96691 | 28435 ft | 440 kts | 273° |
| 2026-05-05 12:13 | -34.10982 | 0.89343 | 28439 ft | 440 kts | 273° |
| 2026-05-05 12:14 | -34.10515 | 0.82012 | 28431 ft | 440 kts | 273° |
| 2026-05-05 12:14 | -34.10042 | 0.74687 | 28424 ft | 439 kts | 273° |
| 2026-05-05 12:15 | -34.09564 | 0.67339 | 28424 ft | 438 kts | 273° |
| 2026-05-05 12:15 | -34.09088 | 0.60053 | 28422 ft | 438 kts | 273° |
| 2026-05-05 12:16 | -34.08603 | 0.52749 | 28424 ft | 437 kts | 273° |
| 2026-05-05 12:16 | -34.08117 | 0.45461 | 28419 ft | 437 kts | 273° |
| 2026-05-05 12:17 | -34.07628 | 0.38193 | 28424 ft | 436 kts | 273° |
| 2026-05-05 12:17 | -34.07135 | 0.30953 | 28422 ft | 436 kts | 274° |
| 2026-05-05 12:18 | -34.06636 | 0.23678 | 28426 ft | 435 kts | 274° |
| 2026-05-05 12:18 | -34.06136 | 0.16423 | 28420 ft | 435 kts | 274° |
| 2026-05-05 12:19 | -34.05632 | 0.09170 | 28424 ft | 434 kts | 274° |
| 2026-05-05 12:19 | -34.05123 | 0.01933 | 28423 ft | 433 kts | 274° |
| 2026-05-05 12:20 | -34.04612 | -0.05270 | 28420 ft | 432 kts | 273° |
| 2026-05-05 12:20 | -34.04098 | -0.12484 | 28419 ft | 432 kts | 273° |
| 2026-05-05 12:21 | -34.03586 | -0.19644 | 28409 ft | 432 kts | 274° |
| 2026-05-05 12:21 | -34.03065 | -0.26850 | 28404 ft | 432 kts | 273° |
| 2026-05-05 12:22 | -34.02552 | -0.33909 | 28408 ft | 433 kts | 274° |
| 2026-05-05 12:22 | -34.02022 | -0.41136 | 28417 ft | 433 kts | 274° |
| 2026-05-05 12:23 | -34.01493 | -0.48291 | 28417 ft | 432 kts | 274° |
| 2026-05-05 12:23 | -34.00957 | -0.55497 | 28421 ft | 432 kts | 274° |
| 2026-05-05 12:24 | -34.00419 | -0.62663 | 28416 ft | 431 kts | 274° |
| 2026-05-05 12:24 | -33.99873 | -0.69866 | 28407 ft | 431 kts | 274° |
| 2026-05-05 12:25 | -33.99327 | -0.77025 | 28403 ft | 430 kts | 274° |
| 2026-05-05 12:25 | -33.98777 | -0.84202 | 28405 ft | 430 kts | 274° |
| 2026-05-05 12:26 | -33.98222 | -0.91346 | 28408 ft | 430 kts | 274° |
| 2026-05-05 12:26 | -33.97664 | -0.98506 | 28404 ft | 430 kts | 274° |
| 2026-05-05 12:27 | -33.97106 | -1.05632 | 28408 ft | 430 kts | 274° |
| 2026-05-05 12:27 | -33.96540 | -1.12767 | 28401 ft | 429 kts | 274° |
| 2026-05-05 12:28 | -33.95974 | -1.19883 | 28407 ft | 428 kts | 274° |
| 2026-05-05 12:28 | -33.95400 | -1.27026 | 28404 ft | 428 kts | 274° |
| 2026-05-05 12:29 | -33.94822 | -1.34153 | 28398 ft | 428 kts | 274° |
| 2026-05-05 12:29 | -33.94242 | -1.41262 | 28404 ft | 428 kts | 274° |
| 2026-05-05 12:30 | -33.93656 | -1.48386 | 28407 ft | 429 kts | 274° |
| 2026-05-05 12:30 | -33.93068 | -1.55494 | 28399 ft | 429 kts | 274° |
| 2026-05-05 12:31 | -33.92473 | -1.62650 | 28404 ft | 428 kts | 274° |
| 2026-05-05 12:31 | -33.91875 | -1.69773 | 28407 ft | 429 kts | 275° |
| 2026-05-05 12:32 | -33.91275 | -1.76883 | 28409 ft | 428 kts | 275° |
| 2026-05-05 12:32 | -33.90669 | -1.84000 | 28398 ft | 428 kts | 275° |
| 2026-05-05 12:33 | -33.90062 | -1.91099 | 28398 ft | 430 kts | 275° |
| 2026-05-05 12:33 | -33.89447 | -1.98213 | 28394 ft | 430 kts | 275° |
| 2026-05-05 12:34 | -33.88826 | -2.05352 | 28377 ft | 430 kts | 274° |
| 2026-05-05 12:34 | -33.88202 | -2.12500 | 28386 ft | 429 kts | 275° |
| 2026-05-05 12:35 | -33.87574 | -2.19639 | 28383 ft | 429 kts | 275° |
| 2026-05-05 12:35 | -33.86944 | -2.26755 | 28391 ft | 428 kts | 275° |
| 2026-05-05 12:36 | -33.86314 | -2.33818 | 28385 ft | 428 kts | 275° |
| 2026-05-05 12:36 | -33.85675 | -2.40928 | 28384 ft | 427 kts | 275° |
| 2026-05-05 12:37 | -33.85034 | -2.48030 | 28395 ft | 427 kts | 275° |
| 2026-05-05 12:37 | -33.84392 | -2.55082 | 28387 ft | 427 kts | 275° |
| 2026-05-05 12:38 | -33.83742 | -2.62185 | 28390 ft | 426 kts | 275° |
| 2026-05-05 12:38 | -33.83093 | -2.69214 | 28396 ft | 426 kts | 275° |
| 2026-05-05 12:39 | -33.82438 | -2.76283 | 28393 ft | 426 kts | 275° |
| 2026-05-05 12:39 | -33.81781 | -2.83345 | 28402 ft | 426 kts | 275° |
| 2026-05-05 12:40 | -33.81115 | -2.90436 | 28400 ft | 425 kts | 275° |
| 2026-05-05 12:40 | -33.80452 | -2.97453 | 28401 ft | 424 kts | 275° |
| 2026-05-05 12:41 | -33.79786 | -3.04469 | 28386 ft | 424 kts | 275° |
| 2026-05-05 12:41 | -33.79112 | -3.11510 | 28398 ft | 424 kts | 275° |
| 2026-05-05 12:42 | -33.78435 | -3.18549 | 28388 ft | 424 kts | 275° |
| 2026-05-05 12:42 | -33.77755 | -3.25574 | 28380 ft | 424 kts | 275° |
| 2026-05-05 12:43 | -33.77073 | -3.32581 | 28386 ft | 424 kts | 275° |
| 2026-05-05 12:43 | -33.76385 | -3.39609 | 28390 ft | 424 kts | 275° |
| 2026-05-05 12:44 | -33.75696 | -3.46596 | 28380 ft | 424 kts | 275° |
| 2026-05-05 12:44 | -33.74998 | -3.53650 | 28385 ft | 424 kts | 275° |
| 2026-05-05 12:45 | -33.74299 | -3.60659 | 28387 ft | 423 kts | 275° |
| 2026-05-05 12:45 | -33.73597 | -3.67654 | 28394 ft | 423 kts | 276° |
| 2026-05-05 12:46 | -33.72892 | -3.74653 | 28385 ft | 423 kts | 276° |
| 2026-05-05 12:46 | -33.72184 | -3.81618 | 28382 ft | 422 kts | 276° |
| 2026-05-05 12:47 | -33.71471 | -3.88620 | 28377 ft | 423 kts | 276° |
| 2026-05-05 12:47 | -33.70754 | -3.95596 | 28368 ft | 423 kts | 276° |
| 2026-05-05 12:48 | -33.70032 | -4.02608 | 28378 ft | 423 kts | 276° |
| 2026-05-05 12:48 | -33.69309 | -4.09584 | 28362 ft | 422 kts | 276° |
| 2026-05-05 12:49 | -33.68579 | -4.16574 | 28369 ft | 422 kts | 276° |
| 2026-05-05 12:49 | -33.67853 | -4.23493 | 28366 ft | 421 kts | 276° |
| 2026-05-05 12:50 | -33.67119 | -4.30460 | 28373 ft | 421 kts | 276° |
| 2026-05-05 12:50 | -33.66381 | -4.37414 | 28369 ft | 420 kts | 276° |
| 2026-05-05 12:51 | -33.65637 | -4.44393 | 28360 ft | 421 kts | 276° |
| 2026-05-05 12:51 | -33.64894 | -4.51313 | 28359 ft | 421 kts | 276° |
| 2026-05-05 12:52 | -33.64144 | -4.58268 | 28364 ft | 421 kts | 276° |
| 2026-05-05 12:52 | -33.63393 | -4.65205 | 28359 ft | 421 kts | 277° |
| 2026-05-05 12:53 | -33.62633 | -4.72175 | 28354 ft | 421 kts | 277° |
| 2026-05-05 12:53 | -33.61875 | -4.79102 | 28361 ft | 420 kts | 277° |
| 2026-05-05 12:54 | -33.60732 | -4.89470 | 28352 ft | 419 kts | 277° |
| 2026-05-05 12:55 | -33.59964 | -4.96405 | 28364 ft | 419 kts | 277° |
| 2026-05-05 12:55 | -33.59190 | -5.03324 | 28362 ft | 419 kts | 277° |
| 2026-05-05 12:56 | -33.58419 | -5.10209 | 28362 ft | 419 kts | 277° |
| 2026-05-05 12:56 | -33.57638 | -5.17145 | 28358 ft | 419 kts | 277° |
| 2026-05-05 12:57 | -33.56854 | -5.24053 | 28350 ft | 419 kts | 277° |
| 2026-05-05 12:57 | -33.56070 | -5.30942 | 28357 ft | 418 kts | 277° |
| 2026-05-05 12:58 | -33.55284 | -5.37809 | 28367 ft | 418 kts | 277° |
| 2026-05-05 12:58 | -33.54492 | -5.44697 | 28364 ft | 418 kts | 277° |
| 2026-05-05 12:59 | -33.53695 | -5.51604 | 28355 ft | 419 kts | 277° |
| 2026-05-05 12:59 | -33.52893 | -5.58500 | 28354 ft | 419 kts | 277° |
| 2026-05-05 13:00 | -33.51686 | -5.68828 | 28347 ft | 418 kts | 277° |
| 2026-05-05 13:01 | -33.50065 | -5.82587 | 28348 ft | 418 kts | 277° |
| 2026-05-05 13:01 | -33.49249 | -5.89453 | 28355 ft | 418 kts | 277° |
| 2026-05-05 13:02 | -33.48428 | -5.96327 | 28353 ft | 418 kts | 277° |
| 2026-05-05 13:02 | -33.47603 | -6.03221 | 28349 ft | 419 kts | 277° |
| 2026-05-05 13:03 | -33.46774 | -6.10104 | 28351 ft | 419 kts | 277° |
| 2026-05-05 13:03 | -33.45943 | -6.16973 | 28343 ft | 419 kts | 278° |
| 2026-05-05 13:04 | -33.45102 | -6.23874 | 28347 ft | 419 kts | 278° |
| 2026-05-05 13:04 | -33.44262 | -6.30756 | 28349 ft | 419 kts | 278° |
| 2026-05-05 13:05 | -33.43418 | -6.37632 | 28345 ft | 419 kts | 278° |
| 2026-05-05 13:05 | -33.42569 | -6.44510 | 28346 ft | 419 kts | 278° |
| 2026-05-05 13:06 | -33.41720 | -6.51364 | 28346 ft | 419 kts | 277° |
| 2026-05-05 13:06 | -33.40861 | -6.58261 | 28345 ft | 419 kts | 278° |
| 2026-05-05 13:07 | -33.39998 | -6.65168 | 28342 ft | 419 kts | 278° |
| 2026-05-05 13:07 | -33.39134 | -6.72035 | 28348 ft | 419 kts | 278° |
| 2026-05-05 13:08 | -33.38267 | -6.78902 | 28349 ft | 419 kts | 278° |
| 2026-05-05 13:08 | -33.37399 | -6.85748 | 28339 ft | 419 kts | 278° |
| 2026-05-05 13:09 | -33.36523 | -6.92615 | 28343 ft | 419 kts | 278° |
| 2026-05-05 13:09 | -33.35641 | -6.99524 | 28340 ft | 419 kts | 278° |
| 2026-05-05 13:10 | -33.34762 | -7.06365 | 28332 ft | 419 kts | 278° |
| 2026-05-05 13:10 | -33.33873 | -7.13247 | 28336 ft | 418 kts | 278° |
| 2026-05-05 13:11 | -33.32986 | -7.20083 | 28335 ft | 418 kts | 278° |
| 2026-05-05 13:11 | -33.32096 | -7.26917 | 28332 ft | 418 kts | 278° |
| 2026-05-05 13:12 | -33.31198 | -7.33782 | 28330 ft | 417 kts | 279° |
| 2026-05-05 13:12 | -33.30300 | -7.40617 | 28330 ft | 417 kts | 278° |
| 2026-05-05 13:13 | -33.29396 | -7.47463 | 28326 ft | 417 kts | 278° |
| 2026-05-05 13:13 | -33.28490 | -7.54290 | 28328 ft | 416 kts | 278° |
| 2026-05-05 13:14 | -33.27587 | -7.61092 | 28338 ft | 417 kts | 278° |
| 2026-05-05 13:14 | -33.26672 | -7.67921 | 28332 ft | 417 kts | 279° |
| 2026-05-05 13:15 | -33.25760 | -7.74711 | 28332 ft | 416 kts | 279° |
| 2026-05-05 13:15 | -33.24839 | -7.81546 | 28330 ft | 416 kts | 279° |
| 2026-05-05 13:16 | -33.23917 | -7.88348 | 28325 ft | 416 kts | 279° |
| 2026-05-05 13:16 | -33.22998 | -7.95115 | 28322 ft | 415 kts | 279° |
| 2026-05-05 13:17 | -33.22075 | -8.01887 | 28321 ft | 415 kts | 279° |
| 2026-05-05 13:17 | -33.21144 | -8.08666 | 28324 ft | 415 kts | 279° |
| 2026-05-05 13:18 | -33.20208 | -8.15466 | 28331 ft | 415 kts | 279° |
| 2026-05-05 13:18 | -33.19269 | -8.22255 | 28330 ft | 416 kts | 279° |
| 2026-05-05 13:19 | -33.18327 | -8.29032 | 28335 ft | 415 kts | 279° |
| 2026-05-05 13:19 | -33.17376 | -8.35847 | 28342 ft | 415 kts | 279° |
| 2026-05-05 13:20 | -33.16427 | -8.42633 | 28338 ft | 415 kts | 279° |
| 2026-05-05 13:20 | -33.15480 | -8.49382 | 28346 ft | 415 kts | 279° |
| 2026-05-05 13:21 | -33.14522 | -8.56168 | 28343 ft | 415 kts | 279° |
| 2026-05-05 13:21 | -33.13560 | -8.62935 | 28341 ft | 415 kts | 279° |
| 2026-05-05 13:22 | -33.12601 | -8.69685 | 28345 ft | 415 kts | 280° |
| 2026-05-05 13:22 | -33.11637 | -8.76431 | 28346 ft | 413 kts | 279° |
| 2026-05-05 13:23 | -33.10670 | -8.83182 | 28341 ft | 413 kts | 280° |
| 2026-05-05 13:23 | -33.09699 | -8.89913 | 28339 ft | 413 kts | 279° |
| 2026-05-05 13:24 | -33.08726 | -8.96645 | 28344 ft | 413 kts | 279° |
| 2026-05-05 13:24 | -33.07753 | -9.03351 | 28345 ft | 413 kts | 280° |
| 2026-05-05 13:25 | -33.06770 | -9.10090 | 28343 ft | 413 kts | 279° |
| 2026-05-05 13:25 | -33.05786 | -9.16821 | 28339 ft | 413 kts | 280° |
| 2026-05-05 13:26 | -33.04802 | -9.23537 | 28343 ft | 414 kts | 280° |
| 2026-05-05 13:26 | -33.03802 | -9.30315 | 28330 ft | 414 kts | 280° |
| 2026-05-05 13:27 | -33.02808 | -9.37031 | 28337 ft | 413 kts | 280° |
| 2026-05-05 13:27 | -33.01811 | -9.43734 | 28339 ft | 413 kts | 280° |
| 2026-05-05 13:28 | -33.00805 | -9.50485 | 28341 ft | 414 kts | 280° |
| 2026-05-05 13:28 | -32.99802 | -9.57194 | 28331 ft | 413 kts | 280° |
| 2026-05-05 13:29 | -32.98793 | -9.63922 | 28334 ft | 413 kts | 280° |
| 2026-05-05 13:29 | -32.97784 | -9.70604 | 28339 ft | 413 kts | 281° |
| 2026-05-05 13:30 | -32.96763 | -9.77355 | 28340 ft | 413 kts | 281° |
| 2026-05-05 13:30 | -32.95746 | -9.84056 | 28349 ft | 413 kts | 280° |
| 2026-05-05 13:31 | -32.94727 | -9.90769 | 28352 ft | 412 kts | 281° |
| 2026-05-05 13:31 | -32.93705 | -9.97436 | 28352 ft | 412 kts | 281° |
| 2026-05-05 13:32 | -32.92633 | -10.04124 | 28345 ft | 413 kts | 281° |
| 2026-05-05 13:32 | -32.91495 | -10.10820 | 28346 ft | 413 kts | 281° |
| 2026-05-05 13:33 | -32.90359 | -10.17510 | 28344 ft | 412 kts | 281° |
| 2026-05-05 13:33 | -32.89224 | -10.24195 | 28343 ft | 413 kts | 281° |
| 2026-05-05 13:34 | -32.88084 | -10.30894 | 28349 ft | 414 kts | 281° |
| 2026-05-05 13:34 | -32.86949 | -10.37554 | 28348 ft | 413 kts | 282° |
| 2026-05-05 13:35 | -32.85807 | -10.44228 | 28341 ft | 414 kts | 281° |
| 2026-05-05 13:35 | -32.84648 | -10.50966 | 28343 ft | 414 kts | 282° |
| 2026-05-05 13:36 | -32.83498 | -10.57648 | 28339 ft | 414 kts | 281° |
| 2026-05-05 13:36 | -32.82346 | -10.64327 | 28344 ft | 414 kts | 282° |
| 2026-05-05 13:37 | -32.81186 | -10.71006 | 28343 ft | 414 kts | 282° |
| 2026-05-05 13:37 | -32.80022 | -10.77703 | 28340 ft | 414 kts | 282° |
| 2026-05-05 13:38 | -32.78854 | -10.84390 | 28343 ft | 415 kts | 282° |
| 2026-05-05 13:38 | -32.77683 | -10.91088 | 28339 ft | 414 kts | 282° |
| 2026-05-05 13:39 | -32.76505 | -10.97790 | 28342 ft | 415 kts | 282° |
| 2026-05-05 13:39 | -32.75332 | -11.04456 | 28342 ft | 414 kts | 282° |
| 2026-05-05 13:40 | -32.74145 | -11.11165 | 28345 ft | 414 kts | 282° |
| 2026-05-05 13:40 | -32.72961 | -11.17835 | 28340 ft | 415 kts | 282° |
| 2026-05-05 13:41 | -32.71773 | -11.24512 | 28346 ft | 415 kts | 282° |
| 2026-05-05 13:41 | -32.70571 | -11.31241 | 28345 ft | 415 kts | 282° |
| 2026-05-05 13:42 | -32.69381 | -11.37896 | 28351 ft | 415 kts | 282° |
| 2026-05-05 13:42 | -32.68169 | -11.44626 | 28348 ft | 416 kts | 282° |
| 2026-05-05 13:43 | -32.66963 | -11.51323 | 28358 ft | 416 kts | 282° |
| 2026-05-05 13:43 | -32.65753 | -11.57999 | 28351 ft | 415 kts | 282° |
| 2026-05-05 13:44 | -32.64539 | -11.64693 | 28357 ft | 416 kts | 282° |
| 2026-05-05 13:44 | -32.63318 | -11.71406 | 28356 ft | 417 kts | 283° |
| 2026-05-05 13:45 | -32.62102 | -11.78073 | 28346 ft | 416 kts | 283° |
| 2026-05-05 13:45 | -32.60878 | -11.84753 | 28349 ft | 417 kts | 283° |
| 2026-05-05 13:46 | -32.59642 | -11.91472 | 28355 ft | 417 kts | 283° |
| 2026-05-05 13:46 | -32.58407 | -11.98166 | 28355 ft | 417 kts | 283° |
| 2026-05-05 13:47 | -32.57167 | -12.04874 | 28356 ft | 418 kts | 283° |
| 2026-05-05 13:47 | -32.55923 | -12.11587 | 28352 ft | 418 kts | 283° |
| 2026-05-05 13:48 | -32.54677 | -12.18279 | 28353 ft | 417 kts | 283° |
| 2026-05-05 13:48 | -32.53431 | -12.24948 | 28356 ft | 417 kts | 283° |
| 2026-05-05 13:49 | -32.52182 | -12.31614 | 28349 ft | 417 kts | 283° |
| 2026-05-05 13:49 | -32.50929 | -12.38294 | 28341 ft | 416 kts | 283° |
| 2026-05-05 13:50 | -32.49668 | -12.44980 | 28347 ft | 417 kts | 283° |
| 2026-05-05 13:50 | -32.48409 | -12.51652 | 28341 ft | 417 kts | 283° |
| 2026-05-05 13:51 | -32.47138 | -12.58352 | 28346 ft | 416 kts | 283° |
| 2026-05-05 13:51 | -32.45875 | -12.64995 | 28345 ft | 417 kts | 283° |
| 2026-05-05 13:52 | -32.44592 | -12.71712 | 28339 ft | 417 kts | 284° |
| 2026-05-05 13:52 | -32.43314 | -12.78398 | 28339 ft | 417 kts | 283° |
| 2026-05-05 13:53 | -32.42034 | -12.85071 | 28338 ft | 416 kts | 284° |
| 2026-05-05 13:53 | -32.40755 | -12.91710 | 28340 ft | 416 kts | 284° |
| 2026-05-05 13:54 | -32.39469 | -12.98377 | 28342 ft | 416 kts | 284° |
| 2026-05-05 13:54 | -32.38177 | -13.05042 | 28349 ft | 417 kts | 284° |
| 2026-05-05 13:55 | -32.36883 | -13.11697 | 28352 ft | 417 kts | 284° |
| 2026-05-05 13:55 | -32.35587 | -13.18359 | 28354 ft | 416 kts | 284° |
| 2026-05-05 13:56 | -32.34282 | -13.25038 | 28354 ft | 417 kts | 284° |
| 2026-05-05 13:56 | -32.32978 | -13.31689 | 28340 ft | 416 kts | 284° |
| 2026-05-05 13:57 | -32.31672 | -13.38328 | 28350 ft | 415 kts | 283° |
| 2026-05-05 13:57 | -32.30371 | -13.44932 | 28346 ft | 415 kts | 284° |
| 2026-05-05 13:58 | -32.29058 | -13.51571 | 28347 ft | 415 kts | 283° |
| 2026-05-05 13:58 | -32.27744 | -13.58206 | 28345 ft | 415 kts | 284° |
| 2026-05-05 13:59 | -32.25769 | -13.68124 | 28352 ft | 416 kts | 284° |
| 2026-05-05 14:00 | -32.23777 | -13.78094 | 28356 ft | 415 kts | 284° |
| 2026-05-05 14:00 | -32.22450 | -13.84709 | 28368 ft | 415 kts | 284° |
| 2026-05-05 14:01 | -32.21124 | -13.91296 | 28357 ft | 415 kts | 284° |
| 2026-05-05 14:01 | -32.19785 | -13.97929 | 28363 ft | 414 kts | 284° |
| 2026-05-05 14:02 | -32.18451 | -14.04526 | 28364 ft | 414 kts | 284° |
| 2026-05-05 14:02 | -32.17115 | -14.11105 | 28363 ft | 414 kts | 284° |
| 2026-05-05 14:03 | -32.15776 | -14.17687 | 28355 ft | 414 kts | 284° |
| 2026-05-05 14:03 | -32.14423 | -14.24315 | 28350 ft | 415 kts | 284° |
| 2026-05-05 14:04 | -32.13076 | -14.30894 | 28344 ft | 416 kts | 284° |
| 2026-05-05 14:04 | -32.11718 | -14.37522 | 28356 ft | 415 kts | 284° |
| 2026-05-05 14:05 | -32.10358 | -14.44127 | 28348 ft | 416 kts | 284° |
| 2026-05-05 14:05 | -32.08991 | -14.50751 | 28336 ft | 416 kts | 284° |
| 2026-05-05 14:06 | -32.07618 | -14.57385 | 28337 ft | 417 kts | 284° |
| 2026-05-05 14:06 | -32.06251 | -14.63971 | 28343 ft | 417 kts | 284° |
| 2026-05-05 14:07 | -32.04872 | -14.70593 | 28347 ft | 417 kts | 285° |
| 2026-05-05 14:07 | -32.03486 | -14.77229 | 28345 ft | 418 kts | 285° |
| 2026-05-05 14:08 | -32.02095 | -14.83882 | 28348 ft | 418 kts | 285° |
| 2026-05-05 14:08 | -32.00701 | -14.90530 | 28341 ft | 419 kts | 285° |
| 2026-05-05 14:09 | -31.99304 | -14.97172 | 28341 ft | 419 kts | 285° |
| 2026-05-05 14:09 | -31.97899 | -15.03832 | 28344 ft | 420 kts | 285° |
| 2026-05-05 14:10 | -31.96488 | -15.10499 | 28345 ft | 421 kts | 285° |
| 2026-05-05 14:10 | -31.95079 | -15.17147 | 28338 ft | 421 kts | 285° |
| 2026-05-05 14:11 | -31.93666 | -15.23804 | 28344 ft | 421 kts | 285° |
| 2026-05-05 14:11 | -31.92239 | -15.30496 | 28353 ft | 420 kts | 285° |
| 2026-05-05 14:12 | -31.90821 | -15.37157 | 28349 ft | 420 kts | 284° |
| 2026-05-05 14:12 | -31.89410 | -15.43804 | 28351 ft | 421 kts | 285° |
| 2026-05-05 14:13 | -31.87994 | -15.50470 | 28350 ft | 421 kts | 285° |
| 2026-05-05 14:13 | -31.86568 | -15.57163 | 28359 ft | 423 kts | 285° |
| 2026-05-05 14:14 | -31.85149 | -15.63814 | 28355 ft | 423 kts | 285° |
| 2026-05-05 14:14 | -31.83711 | -15.70525 | 28354 ft | 423 kts | 285° |
| 2026-05-05 14:15 | -31.82266 | -15.77251 | 28352 ft | 424 kts | 285° |
| 2026-05-05 14:15 | -31.80827 | -15.83937 | 28354 ft | 423 kts | 285° |
| 2026-05-05 14:16 | -31.79384 | -15.90622 | 28371 ft | 424 kts | 285° |
| 2026-05-05 14:16 | -31.77932 | -15.97333 | 28346 ft | 423 kts | 285° |
| 2026-05-05 14:17 | -31.76481 | -16.04015 | 28346 ft | 424 kts | 285° |
| 2026-05-05 14:17 | -31.75027 | -16.10692 | 28357 ft | 424 kts | 285° |
| 2026-05-05 14:18 | -31.73562 | -16.17404 | 28351 ft | 423 kts | 285° |
| 2026-05-05 14:18 | -31.72105 | -16.24065 | 28358 ft | 424 kts | 285° |
| 2026-05-05 14:19 | -31.70637 | -16.30760 | 28341 ft | 424 kts | 285° |
| 2026-05-05 14:19 | -31.69167 | -16.37440 | 28341 ft | 423 kts | 285° |
| 2026-05-05 14:20 | -31.67699 | -16.44090 | 28344 ft | 422 kts | 285° |
| 2026-05-05 14:20 | -31.66224 | -16.50755 | 28342 ft | 423 kts | 285° |
| 2026-05-05 14:21 | -31.64742 | -16.57443 | 28335 ft | 423 kts | 285° |
| 2026-05-05 14:21 | -31.63271 | -16.64062 | 28338 ft | 422 kts | 285° |
| 2026-05-05 14:22 | -31.61784 | -16.70728 | 28346 ft | 422 kts | 286° |
| 2026-05-05 14:22 | -31.60302 | -16.77356 | 28341 ft | 422 kts | 286° |
| 2026-05-05 14:23 | -31.58814 | -16.83989 | 28338 ft | 422 kts | 286° |
| 2026-05-05 14:23 | -31.57312 | -16.90670 | 28345 ft | 422 kts | 286° |
| 2026-05-05 14:24 | -31.55815 | -16.97323 | 28338 ft | 423 kts | 286° |
| 2026-05-05 14:24 | -31.54320 | -17.03936 | 28338 ft | 422 kts | 286° |
| 2026-05-05 14:25 | -31.52813 | -17.10589 | 28341 ft | 422 kts | 286° |
| 2026-05-05 14:25 | -31.51312 | -17.17199 | 28351 ft | 422 kts | 286° |
| 2026-05-05 14:26 | -31.49803 | -17.23825 | 28351 ft | 423 kts | 286° |
| 2026-05-05 14:26 | -31.48280 | -17.30495 | 28347 ft | 424 kts | 286° |
| 2026-05-05 14:27 | -31.46764 | -17.37115 | 28346 ft | 423 kts | 286° |
| 2026-05-05 14:27 | -31.45237 | -17.43769 | 28352 ft | 423 kts | 286° |
| 2026-05-05 14:28 | -31.43714 | -17.50389 | 28349 ft | 424 kts | 286° |
| 2026-05-05 14:28 | -31.42175 | -17.57062 | 28343 ft | 424 kts | 286° |
| 2026-05-05 14:29 | -31.40639 | -17.63706 | 28355 ft | 425 kts | 286° |
| 2026-05-05 14:29 | -31.39090 | -17.70384 | 28346 ft | 425 kts | 286° |
| 2026-05-05 14:30 | -31.37551 | -17.77009 | 28355 ft | 425 kts | 286° |
| 2026-05-05 14:30 | -31.35995 | -17.83691 | 28345 ft | 425 kts | 287° |
| 2026-05-05 14:31 | -31.34443 | -17.90333 | 28341 ft | 426 kts | 286° |
| 2026-05-05 14:31 | -31.32875 | -17.97025 | 28334 ft | 427 kts | 286° |
| 2026-05-05 14:32 | -31.31305 | -18.03711 | 28342 ft | 428 kts | 286° |
| 2026-05-05 14:32 | -31.29731 | -18.10397 | 28347 ft | 428 kts | 286° |
| 2026-05-05 14:33 | -31.28142 | -18.17130 | 28336 ft | 429 kts | 286° |
| 2026-05-05 14:33 | -31.26562 | -18.23812 | 28342 ft | 429 kts | 286° |
| 2026-05-05 14:34 | -31.24970 | -18.30526 | 28337 ft | 429 kts | 286° |
| 2026-05-05 14:34 | -31.23371 | -18.37248 | 28341 ft | 430 kts | 286° |
| 2026-05-05 14:35 | -31.21775 | -18.43943 | 28344 ft | 430 kts | 286° |
| 2026-05-05 14:35 | -31.20165 | -18.50681 | 28339 ft | 431 kts | 286° |
| 2026-05-05 14:36 | -31.18560 | -18.57377 | 28343 ft | 432 kts | 286° |
| 2026-05-05 14:36 | -31.16939 | -18.64127 | 28341 ft | 432 kts | 286° |
| 2026-05-05 14:37 | -31.15323 | -18.70839 | 28345 ft | 432 kts | 287° |
| 2026-05-05 14:37 | -31.13688 | -18.77614 | 28346 ft | 433 kts | 287° |
| 2026-05-05 14:38 | -31.12061 | -18.84341 | 28347 ft | 434 kts | 287° |
| 2026-05-05 14:38 | -31.10417 | -18.91113 | 28340 ft | 435 kts | 287° |
| 2026-05-05 14:39 | -31.08765 | -18.97904 | 28345 ft | 434 kts | 286° |
| 2026-05-05 14:39 | -31.07121 | -19.04650 | 28340 ft | 435 kts | 286° |
| 2026-05-05 14:40 | -31.05461 | -19.11438 | 28340 ft | 435 kts | 286° |
| 2026-05-05 14:40 | -31.03803 | -19.18206 | 28340 ft | 435 kts | 286° |
| 2026-05-05 14:41 | -31.02134 | -19.25002 | 28338 ft | 436 kts | 286° |
| 2026-05-05 14:41 | -31.00464 | -19.31784 | 28339 ft | 436 kts | 286° |
| 2026-05-05 14:42 | -30.98793 | -19.38556 | 28338 ft | 436 kts | 286° |
| 2026-05-05 14:42 | -30.97130 | -19.45279 | 28338 ft | 435 kts | 287° |
| 2026-05-05 14:43 | -30.95450 | -19.52054 | 28343 ft | 435 kts | 287° |
| 2026-05-05 14:43 | -30.93766 | -19.58823 | 28336 ft | 436 kts | 287° |
| 2026-05-05 14:44 | -30.92079 | -19.65590 | 28336 ft | 436 kts | 287° |
| 2026-05-05 14:44 | -30.90380 | -19.72389 | 28332 ft | 436 kts | 287° |
| 2026-05-05 14:45 | -30.88678 | -19.79184 | 28328 ft | 436 kts | 287° |
| 2026-05-05 14:45 | -30.86979 | -19.85954 | 28318 ft | 435 kts | 287° |
| 2026-05-05 14:46 | -30.85274 | -19.92724 | 28320 ft | 436 kts | 287° |
| 2026-05-05 14:46 | -30.83568 | -19.99489 | 28313 ft | 435 kts | 287° |
| 2026-05-05 14:47 | -30.81867 | -20.06214 | 28319 ft | 435 kts | 287° |
| 2026-05-05 14:47 | -30.80157 | -20.12961 | 28316 ft | 435 kts | 287° |
| 2026-05-05 14:48 | -30.78457 | -20.19654 | 28322 ft | 435 kts | 287° |
| 2026-05-05 14:48 | -30.76734 | -20.26425 | 28310 ft | 436 kts | 287° |
| 2026-05-05 14:49 | -30.75018 | -20.33145 | 28319 ft | 436 kts | 287° |
| 2026-05-05 14:49 | -30.73293 | -20.39894 | 28322 ft | 437 kts | 287° |
| 2026-05-05 14:50 | -30.71564 | -20.46643 | 28323 ft | 436 kts | 287° |
| 2026-05-05 14:50 | -30.69832 | -20.53392 | 28326 ft | 436 kts | 287° |
| 2026-05-05 14:51 | -30.68101 | -20.60108 | 28330 ft | 436 kts | 287° |
| 2026-05-05 14:51 | -30.66359 | -20.66859 | 28330 ft | 436 kts | 287° |
| 2026-05-05 14:52 | -30.64630 | -20.73558 | 28325 ft | 436 kts | 287° |
| 2026-05-05 14:52 | -30.62890 | -20.80296 | 28328 ft | 436 kts | 287° |
| 2026-05-05 14:53 | -30.61153 | -20.87014 | 28323 ft | 437 kts | 287° |
| 2026-05-05 14:53 | -30.59400 | -20.93779 | 28319 ft | 437 kts | 287° |
| 2026-05-05 14:54 | -30.57650 | -21.00519 | 28320 ft | 437 kts | 287° |
| 2026-05-05 14:54 | -30.55898 | -21.07246 | 28319 ft | 437 kts | 287° |
| 2026-05-05 14:55 | -30.54145 | -21.13955 | 28318 ft | 437 kts | 287° |
| 2026-05-05 14:55 | -30.52384 | -21.20688 | 28322 ft | 438 kts | 287° |
| 2026-05-05 14:56 | -30.50606 | -21.27463 | 28326 ft | 438 kts | 287° |
| 2026-05-05 14:56 | -30.48839 | -21.34195 | 28325 ft | 438 kts | 287° |
| 2026-05-05 14:57 | -30.47068 | -21.40921 | 28324 ft | 438 kts | 287° |
| 2026-05-05 14:57 | -30.45281 | -21.47685 | 28324 ft | 439 kts | 287° |
| 2026-05-05 14:58 | -30.43490 | -21.54450 | 28308 ft | 440 kts | 287° |
| 2026-05-05 14:58 | -30.41700 | -21.61203 | 28302 ft | 440 kts | 287° |
| 2026-05-05 14:59 | -30.39905 | -21.67953 | 28303 ft | 440 kts | 287° |
| 2026-05-05 14:59 | -30.38106 | -21.74704 | 28303 ft | 439 kts | 287° |
| 2026-05-05 15:00 | -30.36611 | -21.80308 | 28300 ft | 440 kts | 287° |
| 2026-05-05 15:00 | -30.34503 | -21.88180 | 28299 ft | 440 kts | 287° |
| 2026-05-05 15:01 | -30.32678 | -21.94981 | 28299 ft | 440 kts | 287° |
| 2026-05-05 15:01 | -30.30863 | -22.01728 | 28297 ft | 440 kts | 287° |
| 2026-05-05 15:02 | -30.29056 | -22.08433 | 28303 ft | 439 kts | 287° |
| 2026-05-05 15:02 | -30.27233 | -22.15175 | 28311 ft | 441 kts | 287° |
| 2026-05-05 15:03 | -30.25403 | -22.21935 | 28315 ft | 441 kts | 287° |
| 2026-05-05 15:03 | -30.23568 | -22.28693 | 28320 ft | 441 kts | 287° |
| 2026-05-05 15:04 | -30.21734 | -22.35439 | 28318 ft | 440 kts | 287° |
| 2026-05-05 15:04 | -30.19905 | -22.42148 | 28322 ft | 440 kts | 287° |
| 2026-05-05 15:05 | -30.17138 | -22.52269 | 28320 ft | 440 kts | 287° |
| 2026-05-05 15:06 | -30.15294 | -22.58995 | 28318 ft | 440 kts | 287° |
| 2026-05-05 15:06 | -30.13450 | -22.65707 | 28317 ft | 440 kts | 287° |
| 2026-05-05 15:07 | -30.11600 | -22.72430 | 28311 ft | 439 kts | 288° |
| 2026-05-05 15:07 | -30.09757 | -22.79104 | 28302 ft | 439 kts | 288° |
| 2026-05-05 15:08 | -30.07905 | -22.85798 | 28304 ft | 439 kts | 288° |
| 2026-05-05 15:08 | -30.06048 | -22.92494 | 28297 ft | 439 kts | 287° |
| 2026-05-05 15:09 | -30.04182 | -22.99208 | 28302 ft | 439 kts | 287° |
| 2026-05-05 15:09 | -30.02322 | -23.05887 | 28299 ft | 439 kts | 287° |
| 2026-05-05 15:10 | -30.00454 | -23.12580 | 28300 ft | 439 kts | 287° |
| 2026-05-05 15:10 | -29.98584 | -23.19272 | 28302 ft | 439 kts | 287° |
| 2026-05-05 15:11 | -29.96717 | -23.25936 | 28301 ft | 439 kts | 287° |
| 2026-05-05 15:11 | -29.94827 | -23.32665 | 28300 ft | 439 kts | 288° |
| 2026-05-05 15:12 | -29.92951 | -23.39329 | 28297 ft | 439 kts | 287° |
| 2026-05-05 15:12 | -29.91064 | -23.46016 | 28303 ft | 438 kts | 287° |
| 2026-05-05 15:13 | -29.89181 | -23.52672 | 28299 ft | 439 kts | 287° |
| 2026-05-05 15:13 | -29.87299 | -23.59318 | 28300 ft | 439 kts | 287° |
| 2026-05-05 15:14 | -29.85402 | -23.66004 | 28309 ft | 438 kts | 288° |
| 2026-05-05 15:14 | -29.83509 | -23.72658 | 28313 ft | 438 kts | 288° |
| 2026-05-05 15:15 | -29.81611 | -23.79309 | 28317 ft | 438 kts | 288° |
| 2026-05-05 15:15 | -29.79709 | -23.85963 | 28317 ft | 438 kts | 288° |
| 2026-05-05 15:16 | -29.77806 | -23.92608 | 28322 ft | 439 kts | 288° |
| 2026-05-05 15:16 | -29.75898 | -23.99257 | 28319 ft | 439 kts | 288° |
| 2026-05-05 15:17 | -29.73975 | -24.05951 | 28312 ft | 440 kts | 288° |
| 2026-05-05 15:17 | -29.72062 | -24.12593 | 28313 ft | 440 kts | 288° |
| 2026-05-05 15:18 | -29.70131 | -24.19275 | 28312 ft | 439 kts | 288° |
| 2026-05-05 15:18 | -29.68214 | -24.25892 | 28316 ft | 439 kts | 288° |
| 2026-05-05 15:19 | -29.66286 | -24.32546 | 28312 ft | 439 kts | 288° |
| 2026-05-05 15:19 | -29.64355 | -24.39190 | 28312 ft | 439 kts | 288° |
| 2026-05-05 15:20 | -29.62421 | -24.45831 | 28314 ft | 438 kts | 288° |
| 2026-05-05 15:20 | -29.60490 | -24.52453 | 28312 ft | 438 kts | 288° |
| 2026-05-05 15:21 | -29.58564 | -24.59034 | 28308 ft | 438 kts | 288° |
| 2026-05-05 15:21 | -29.56621 | -24.65669 | 28302 ft | 439 kts | 288° |
| 2026-05-05 15:22 | -29.54673 | -24.72302 | 28305 ft | 438 kts | 288° |
| 2026-05-05 15:22 | -29.52732 | -24.78899 | 28301 ft | 438 kts | 288° |
| 2026-05-05 15:23 | -29.50788 | -24.85500 | 28299 ft | 438 kts | 288° |
| 2026-05-05 15:23 | -29.48829 | -24.92138 | 28300 ft | 438 kts | 288° |
| 2026-05-05 15:24 | -29.46884 | -24.98722 | 28300 ft | 438 kts | 288° |
| 2026-05-05 15:24 | -29.44918 | -25.05351 | 28299 ft | 438 kts | 288° |
| 2026-05-05 15:25 | -29.42975 | -25.11960 | 28300 ft | 438 kts | 288° |
| 2026-05-05 15:25 | -29.41071 | -25.18563 | 28297 ft | 438 kts | 288° |
| 2026-05-05 15:26 | -29.39162 | -25.25183 | 28298 ft | 438 kts | 288° |
| 2026-05-05 15:26 | -29.37258 | -25.31769 | 28300 ft | 438 kts | 288° |
| 2026-05-05 15:27 | -29.35335 | -25.38408 | 28301 ft | 438 kts | 288° |
| 2026-05-05 15:27 | -29.33417 | -25.45016 | 28298 ft | 438 kts | 288° |
| 2026-05-05 15:28 | -29.31492 | -25.51634 | 28297 ft | 438 kts | 288° |
| 2026-05-05 15:28 | -29.29576 | -25.58210 | 28299 ft | 437 kts | 288° |
| 2026-05-05 15:29 | -29.27655 | -25.64783 | 28299 ft | 437 kts | 288° |
| 2026-05-05 15:29 | -29.25725 | -25.71376 | 28297 ft | 437 kts | 288° |
| 2026-05-05 15:30 | -29.23786 | -25.77984 | 28299 ft | 437 kts | 288° |
| 2026-05-05 15:30 | -29.21849 | -25.84571 | 28300 ft | 437 kts | 288° |
| 2026-05-05 15:31 | -29.19913 | -25.91151 | 28299 ft | 437 kts | 288° |
| 2026-05-05 15:31 | -29.17969 | -25.97742 | 28299 ft | 436 kts | 288° |
| 2026-05-05 15:32 | -29.16027 | -26.04308 | 28291 ft | 437 kts | 288° |
| 2026-05-05 15:32 | -29.14081 | -26.10872 | 28286 ft | 437 kts | 288° |
| 2026-05-05 15:33 | -29.12140 | -26.17408 | 28292 ft | 438 kts | 288° |
| 2026-05-05 15:33 | -29.10180 | -26.23996 | 28299 ft | 438 kts | 288° |
| 2026-05-05 15:34 | -29.08217 | -26.30585 | 28302 ft | 437 kts | 288° |
| 2026-05-05 15:34 | -29.06255 | -26.37156 | 28300 ft | 437 kts | 288° |
| 2026-05-05 15:35 | -29.04289 | -26.43722 | 28300 ft | 438 kts | 288° |
| 2026-05-05 15:35 | -29.02315 | -26.50299 | 28299 ft | 438 kts | 288° |
| 2026-05-05 15:36 | -29.00356 | -26.56821 | 28301 ft | 438 kts | 288° |
| 2026-05-05 15:36 | -28.98378 | -26.63393 | 28298 ft | 437 kts | 288° |
| 2026-05-05 15:37 | -28.96401 | -26.69943 | 28301 ft | 437 kts | 289° |
| 2026-05-05 15:37 | -28.94424 | -26.76485 | 28301 ft | 437 kts | 289° |
| 2026-05-05 15:38 | -28.92441 | -26.83026 | 28298 ft | 437 kts | 289° |
| 2026-05-05 15:38 | -28.90456 | -26.89566 | 28299 ft | 438 kts | 289° |
| 2026-05-05 15:39 | -28.88472 | -26.96096 | 28295 ft | 437 kts | 289° |
| 2026-05-05 15:39 | -28.86470 | -27.02667 | 28297 ft | 438 kts | 289° |
| 2026-05-05 15:40 | -28.84479 | -27.09187 | 28295 ft | 438 kts | 289° |
| 2026-05-05 15:40 | -28.82475 | -27.15738 | 28297 ft | 438 kts | 289° |
| 2026-05-05 15:41 | -28.80473 | -27.22266 | 28296 ft | 438 kts | 289° |
| 2026-05-05 15:41 | -28.78464 | -27.28812 | 28296 ft | 438 kts | 289° |
| 2026-05-05 15:42 | -28.76457 | -27.35337 | 28296 ft | 438 kts | 289° |
| 2026-05-05 15:42 | -28.74447 | -27.41855 | 28292 ft | 438 kts | 289° |
| 2026-05-05 15:43 | -28.72424 | -27.48404 | 28295 ft | 437 kts | 289° |
| 2026-05-05 15:43 | -28.70405 | -27.54925 | 28292 ft | 437 kts | 289° |
| 2026-05-05 15:44 | -28.68398 | -27.61398 | 28293 ft | 437 kts | 289° |
| 2026-05-05 15:44 | -28.66373 | -27.67915 | 28293 ft | 437 kts | 289° |
| 2026-05-05 15:45 | -28.64342 | -27.74438 | 28292 ft | 437 kts | 289° |
| 2026-05-05 15:45 | -28.62327 | -27.80901 | 28293 ft | 436 kts | 289° |
| 2026-05-05 15:46 | -28.60298 | -27.87398 | 28289 ft | 436 kts | 289° |
| 2026-05-05 15:46 | -28.58266 | -27.93890 | 28290 ft | 436 kts | 289° |
| 2026-05-05 15:47 | -28.56231 | -28.00372 | 28289 ft | 436 kts | 290° |
| 2026-05-05 15:47 | -28.54195 | -28.06851 | 28291 ft | 437 kts | 289° |
| 2026-05-05 15:48 | -28.52154 | -28.13332 | 28290 ft | 437 kts | 289° |
| 2026-05-05 15:48 | -28.50096 | -28.19853 | 28286 ft | 437 kts | 289° |
| 2026-05-05 15:49 | -28.48053 | -28.26322 | 28287 ft | 437 kts | 289° |
| 2026-05-05 15:49 | -28.45993 | -28.32825 | 28288 ft | 437 kts | 290° |
| 2026-05-05 15:50 | -28.43946 | -28.39279 | 28287 ft | 436 kts | 289° |
| 2026-05-05 15:50 | -28.41884 | -28.45765 | 28282 ft | 436 kts | 289° |
| 2026-05-05 15:51 | -28.39826 | -28.52229 | 28288 ft | 437 kts | 289° |
| 2026-05-05 15:51 | -28.37766 | -28.58683 | 28292 ft | 437 kts | 289° |
| 2026-05-05 15:52 | -28.35703 | -28.65138 | 28291 ft | 437 kts | 290° |
| 2026-05-05 15:52 | -28.33621 | -28.71639 | 28294 ft | 437 kts | 290° |
| 2026-05-05 15:53 | -28.31556 | -28.78073 | 28291 ft | 437 kts | 290° |
| 2026-05-05 15:53 | -28.29474 | -28.84551 | 28292 ft | 437 kts | 290° |
| 2026-05-05 15:54 | -28.27398 | -28.91001 | 28288 ft | 437 kts | 290° |
| 2026-05-05 15:54 | -28.25314 | -28.97459 | 28286 ft | 437 kts | 290° |
| 2026-05-05 15:55 | -28.23221 | -29.03935 | 28297 ft | 436 kts | 290° |
| 2026-05-05 15:55 | -28.21136 | -29.10376 | 28299 ft | 436 kts | 290° |
| 2026-05-05 15:56 | -28.19048 | -29.16814 | 28296 ft | 436 kts | 290° |
| 2026-05-05 15:56 | -28.16963 | -29.23225 | 28307 ft | 436 kts | 290° |
| 2026-05-05 15:57 | -28.14874 | -29.29646 | 28297 ft | 436 kts | 290° |
| 2026-05-05 15:57 | -28.12764 | -29.36113 | 28302 ft | 437 kts | 290° |
| 2026-05-05 15:58 | -28.10669 | -29.42520 | 28299 ft | 437 kts | 290° |
| 2026-05-05 15:58 | -28.08554 | -29.48986 | 28301 ft | 436 kts | 290° |
| 2026-05-05 15:59 | -28.06456 | -29.55386 | 28301 ft | 436 kts | 290° |
| 2026-05-05 15:59 | -28.04350 | -29.61792 | 28303 ft | 435 kts | 290° |
| 2026-05-05 16:00 | -28.02235 | -29.68219 | 28301 ft | 435 kts | 290° |
| 2026-05-05 16:00 | -28.00127 | -29.74613 | 28304 ft | 435 kts | 290° |
| 2026-05-05 16:01 | -27.98018 | -29.81003 | 28299 ft | 435 kts | 290° |
| 2026-05-05 16:01 | -27.95897 | -29.87418 | 28298 ft | 435 kts | 290° |
| 2026-05-05 16:02 | -27.93783 | -29.93796 | 28298 ft | 435 kts | 291° |
| 2026-05-05 16:02 | -27.91660 | -30.00191 | 28291 ft | 435 kts | 290° |
| 2026-05-05 16:03 | -27.89526 | -30.06614 | 28291 ft | 435 kts | 290° |
| 2026-05-05 16:03 | -27.87406 | -30.12990 | 28282 ft | 435 kts | 290° |
| 2026-05-05 16:04 | -27.85282 | -30.19360 | 28282 ft | 435 kts | 291° |
| 2026-05-05 16:04 | -27.83172 | -30.25733 | 28278 ft | 435 kts | 290° |
| 2026-05-05 16:05 | -27.81061 | -30.32161 | 28284 ft | 435 kts | 290° |
| 2026-05-05 16:05 | -27.78974 | -30.38514 | 28282 ft | 435 kts | 290° |
| 2026-05-05 16:06 | -27.76867 | -30.44922 | 28285 ft | 435 kts | 290° |
| 2026-05-05 16:06 | -27.74757 | -30.51327 | 28280 ft | 435 kts | 290° |
| 2026-05-05 16:07 | -27.72662 | -30.57678 | 28278 ft | 435 kts | 290° |
| 2026-05-05 16:07 | -27.70548 | -30.64072 | 28274 ft | 435 kts | 290° |
| 2026-05-05 16:08 | -27.68422 | -30.70487 | 28280 ft | 436 kts | 290° |
| 2026-05-05 16:08 | -27.66302 | -30.76878 | 28273 ft | 436 kts | 290° |
| 2026-05-05 16:09 | -27.64180 | -30.83264 | 28278 ft | 436 kts | 290° |
| 2026-05-05 16:09 | -27.62055 | -30.89648 | 28279 ft | 436 kts | 290° |
| 2026-05-05 16:10 | -27.59930 | -30.96020 | 28277 ft | 436 kts | 290° |
| 2026-05-05 16:10 | -27.57788 | -31.02427 | 28282 ft | 436 kts | 290° |
| 2026-05-05 16:11 | -27.55655 | -31.08800 | 28278 ft | 436 kts | 290° |
| 2026-05-05 16:12 | -27.51363 | -31.21591 | 28281 ft | 436 kts | 290° |
| 2026-05-05 16:13 | -27.45990 | -31.37539 | 28274 ft | 437 kts | 290° |
| 2026-05-05 16:13 | -27.43838 | -31.43904 | 28271 ft | 438 kts | 290° |
| 2026-05-05 16:14 | -27.39508 | -31.56683 | 28270 ft | 437 kts | 290° |
| 2026-05-05 16:15 | -27.35167 | -31.69452 | 28276 ft | 438 kts | 290° |
| 2026-05-05 16:16 | -27.30822 | -31.82185 | 28262 ft | 438 kts | 291° |
| 2026-05-05 16:17 | -27.27541 | -31.91773 | 28267 ft | 439 kts | 291° |
| 2026-05-05 16:18 | -27.24253 | -32.01360 | 28267 ft | 439 kts | 291° |
| 2026-05-05 16:19 | -27.20964 | -32.10917 | 28266 ft | 439 kts | 291° |
| 2026-05-05 16:19 | -27.17661 | -32.20495 | 28266 ft | 439 kts | 290° |
| 2026-05-05 16:20 | -27.13248 | -32.33252 | 28262 ft | 439 kts | 290° |
| 2026-05-05 16:22 | -27.07712 | -32.49197 | 28258 ft | 440 kts | 290° |
| 2026-05-05 16:23 | -27.03271 | -32.61940 | 28260 ft | 440 kts | 290° |
| 2026-05-05 16:23 | -26.99915 | -32.71540 | 28261 ft | 440 kts | 291° |
| 2026-05-05 16:24 | -26.97692 | -32.77888 | 28258 ft | 441 kts | 291° |
| 2026-05-05 16:25 | -26.94331 | -32.87463 | 28263 ft | 442 kts | 291° |
| 2026-05-05 16:25 | -26.90960 | -32.97041 | 28258 ft | 441 kts | 291° |
| 2026-05-05 16:26 | -26.86447 | -33.09826 | 28255 ft | 442 kts | 291° |
| 2026-05-05 16:27 | -26.84191 | -33.16201 | 28256 ft | 442 kts | 290° |
| 2026-05-05 16:27 | -26.81926 | -33.22585 | 28256 ft | 443 kts | 290° |
| 2026-05-05 16:28 | -26.79649 | -33.29000 | 28254 ft | 443 kts | 290° |
| 2026-05-05 16:28 | -26.77384 | -33.35369 | 28255 ft | 444 kts | 290° |
| 2026-05-05 16:29 | -26.75103 | -33.41775 | 28261 ft | 445 kts | 290° |
| 2026-05-05 16:29 | -26.72798 | -33.48238 | 28259 ft | 445 kts | 290° |
| 2026-05-05 16:30 | -26.70503 | -33.54661 | 28259 ft | 446 kts | 290° |
| 2026-05-05 16:30 | -26.68210 | -33.61064 | 28257 ft | 446 kts | 290° |
| 2026-05-05 16:31 | -26.65899 | -33.67508 | 28255 ft | 448 kts | 290° |
| 2026-05-05 16:31 | -26.63585 | -33.73950 | 28252 ft | 448 kts | 290° |
| 2026-05-05 16:32 | -26.61270 | -33.80384 | 28252 ft | 449 kts | 290° |
| 2026-05-05 16:32 | -26.58935 | -33.86865 | 28250 ft | 450 kts | 290° |
| 2026-05-05 16:33 | -26.56597 | -33.93342 | 28247 ft | 450 kts | 290° |
| 2026-05-05 16:33 | -26.54252 | -33.99830 | 28249 ft | 451 kts | 290° |
| 2026-05-05 16:34 | -26.51918 | -34.06276 | 28247 ft | 450 kts | 290° |
| 2026-05-05 16:34 | -26.49567 | -34.12752 | 28248 ft | 451 kts | 290° |
| 2026-05-05 16:35 | -26.47211 | -34.19236 | 28245 ft | 450 kts | 290° |
| 2026-05-05 16:35 | -26.44852 | -34.25717 | 28245 ft | 451 kts | 289° |
| 2026-05-05 16:36 | -26.42491 | -34.32191 | 28243 ft | 452 kts | 289° |
| 2026-05-05 16:36 | -26.40137 | -34.38641 | 28246 ft | 452 kts | 289° |
| 2026-05-05 16:37 | -26.37765 | -34.45127 | 28246 ft | 452 kts | 289° |
| 2026-05-05 16:37 | -26.35397 | -34.51591 | 28240 ft | 453 kts | 290° |
| 2026-05-05 16:38 | -26.33013 | -34.58088 | 28244 ft | 453 kts | 289° |
| 2026-05-05 16:38 | -26.30626 | -34.64580 | 28243 ft | 453 kts | 289° |
| 2026-05-05 16:39 | -26.28238 | -34.71066 | 28243 ft | 454 kts | 290° |
| 2026-05-05 16:39 | -26.25843 | -34.77563 | 28236 ft | 455 kts | 290° |
| 2026-05-05 16:40 | -26.23446 | -34.84053 | 28241 ft | 455 kts | 290° |
| 2026-05-05 16:40 | -26.21029 | -34.90585 | 28237 ft | 456 kts | 290° |
| 2026-05-05 16:41 | -26.18622 | -34.97082 | 28240 ft | 457 kts | 290° |
| 2026-05-05 16:41 | -26.16194 | -35.03622 | 28235 ft | 456 kts | 289° |
| 2026-05-05 16:42 | -26.13770 | -35.10144 | 28239 ft | 457 kts | 290° |
| 2026-05-05 16:42 | -26.11347 | -35.16650 | 28237 ft | 456 kts | 289° |
| 2026-05-05 16:43 | -26.08912 | -35.23177 | 28241 ft | 457 kts | 289° |
| 2026-05-05 16:43 | -26.06477 | -35.29695 | 28236 ft | 456 kts | 289° |
| 2026-05-05 16:44 | -26.04058 | -35.36166 | 28237 ft | 456 kts | 289° |
| 2026-05-05 16:44 | -26.01615 | -35.42685 | 28235 ft | 457 kts | 289° |
| 2026-05-05 16:45 | -25.99170 | -35.49197 | 28235 ft | 458 kts | 289° |
| 2026-05-05 16:45 | -25.96729 | -35.55696 | 28238 ft | 458 kts | 289° |
| 2026-05-05 16:46 | -25.94265 | -35.62239 | 28238 ft | 458 kts | 289° |
| 2026-05-05 16:46 | -25.91820 | -35.68731 | 28246 ft | 458 kts | 289° |
| 2026-05-05 16:47 | -25.89357 | -35.75265 | 28243 ft | 459 kts | 289° |
| 2026-05-05 16:47 | -25.86888 | -35.81802 | 28246 ft | 460 kts | 289° |
| 2026-05-05 16:48 | -25.84437 | -35.88308 | 28234 ft | 460 kts | 289° |
| 2026-05-05 16:48 | -25.82000 | -35.94860 | 28233 ft | 460 kts | 289° |
| 2026-05-05 16:49 | -25.79565 | -36.01416 | 28234 ft | 460 kts | 288° |
| 2026-05-05 16:49 | -25.77117 | -36.07997 | 28230 ft | 461 kts | 289° |
| 2026-05-05 16:50 | -25.74673 | -36.14557 | 28227 ft | 462 kts | 288° |
| 2026-05-05 16:50 | -25.72215 | -36.21148 | 28230 ft | 462 kts | 288° |
| 2026-05-05 16:51 | -25.69763 | -36.27710 | 28228 ft | 464 kts | 288° |
| 2026-05-05 16:51 | -25.67293 | -36.34309 | 28226 ft | 464 kts | 288° |
| 2026-05-05 16:52 | -25.64816 | -36.40912 | 28228 ft | 464 kts | 288° |
| 2026-05-05 16:52 | -25.62344 | -36.47500 | 28230 ft | 464 kts | 288° |
| 2026-05-05 16:53 | -25.59868 | -36.54080 | 28228 ft | 464 kts | 288° |
| 2026-05-05 16:53 | -25.57384 | -36.60673 | 28227 ft | 464 kts | 288° |
| 2026-05-05 16:54 | -25.54895 | -36.67270 | 28225 ft | 465 kts | 289° |
| 2026-05-05 16:54 | -25.52410 | -36.73842 | 28222 ft | 466 kts | 289° |
| 2026-05-05 16:55 | -25.49913 | -36.80436 | 28226 ft | 465 kts | 289° |
| 2026-05-05 16:55 | -25.47413 | -36.87034 | 28221 ft | 466 kts | 289° |
| 2026-05-05 16:56 | -25.44905 | -36.93639 | 28223 ft | 467 kts | 289° |
| 2026-05-05 16:56 | -25.42389 | -37.00256 | 28221 ft | 468 kts | 289° |
| 2026-05-05 16:57 | -25.39866 | -37.06879 | 28226 ft | 468 kts | 289° |
| 2026-05-05 16:57 | -25.37342 | -37.13495 | 28218 ft | 468 kts | 289° |
| 2026-05-05 16:58 | -25.34818 | -37.20101 | 28231 ft | 469 kts | 289° |
| 2026-05-05 16:58 | -25.32274 | -37.26743 | 28221 ft | 469 kts | 289° |
| 2026-05-05 16:59 | -25.29731 | -37.33375 | 28222 ft | 469 kts | 289° |
| 2026-05-05 16:59 | -25.27190 | -37.39991 | 28221 ft | 469 kts | 289° |
| 2026-05-05 17:00 | -25.24643 | -37.46615 | 28225 ft | 470 kts | 289° |
| 2026-05-05 17:00 | -25.22085 | -37.53256 | 28221 ft | 470 kts | 289° |
| 2026-05-05 17:01 | -25.19533 | -37.59871 | 28225 ft | 471 kts | 289° |
| 2026-05-05 17:01 | -25.16956 | -37.66536 | 28224 ft | 471 kts | 289° |
| 2026-05-05 17:02 | -25.14394 | -37.73158 | 28221 ft | 471 kts | 289° |
| 2026-05-05 17:02 | -25.11816 | -37.79807 | 28220 ft | 471 kts | 289° |
| 2026-05-05 17:03 | -25.09236 | -37.86454 | 28221 ft | 472 kts | 290° |
| 2026-05-05 17:03 | -25.06650 | -37.93103 | 28217 ft | 472 kts | 290° |
| 2026-05-05 17:04 | -25.04077 | -37.99709 | 28218 ft | 473 kts | 290° |
| 2026-05-05 17:04 | -25.01480 | -38.06368 | 28211 ft | 473 kts | 290° |
| 2026-05-05 17:05 | -24.98882 | -38.13021 | 28200 ft | 473 kts | 290° |
| 2026-05-05 17:05 | -24.96277 | -38.19676 | 28197 ft | 473 kts | 290° |
| 2026-05-05 17:06 | -24.93679 | -38.26304 | 28195 ft | 472 kts | 290° |
| 2026-05-05 17:06 | -24.91074 | -38.32940 | 28195 ft | 472 kts | 290° |
| 2026-05-05 17:07 | -24.88489 | -38.39515 | 28194 ft | 471 kts | 290° |
| 2026-05-05 17:07 | -24.85885 | -38.46131 | 28195 ft | 471 kts | 290° |
| 2026-05-05 17:08 | -24.83273 | -38.52756 | 28193 ft | 471 kts | 290° |
| 2026-05-05 17:08 | -24.80658 | -38.59376 | 28196 ft | 471 kts | 290° |
| 2026-05-05 17:09 | -24.78061 | -38.65940 | 28199 ft | 471 kts | 291° |
| 2026-05-05 17:09 | -24.75435 | -38.72568 | 28198 ft | 471 kts | 291° |
| 2026-05-05 17:10 | -24.72813 | -38.79178 | 28197 ft | 471 kts | 291° |
| 2026-05-05 17:10 | -24.70210 | -38.85726 | 28198 ft | 471 kts | 291° |
| 2026-05-05 17:11 | -24.67588 | -38.92313 | 28198 ft | 471 kts | 291° |
| 2026-05-05 17:11 | -24.64959 | -38.98915 | 28195 ft | 471 kts | 291° |
| 2026-05-05 17:12 | -24.62327 | -39.05510 | 28195 ft | 471 kts | 291° |
| 2026-05-05 17:12 | -24.59710 | -39.12055 | 28196 ft | 471 kts | 291° |
| 2026-05-05 17:13 | -24.57071 | -39.18645 | 28193 ft | 471 kts | 291° |
| 2026-05-05 17:13 | -24.54431 | -39.25227 | 28196 ft | 471 kts | 291° |
| 2026-05-05 17:14 | -24.51791 | -39.31802 | 28193 ft | 471 kts | 291° |
| 2026-05-05 17:14 | -24.49144 | -39.38383 | 28196 ft | 472 kts | 291° |
| 2026-05-05 17:15 | -24.46514 | -39.44912 | 28196 ft | 471 kts | 291° |
| 2026-05-05 17:15 | -24.43851 | -39.51516 | 28196 ft | 471 kts | 291° |
| 2026-05-05 17:16 | -24.41207 | -39.58065 | 28195 ft | 471 kts | 291° |
| 2026-05-05 17:16 | -24.38586 | -39.64542 | 28195 ft | 471 kts | 291° |
| 2026-05-05 17:17 | -24.35939 | -39.71079 | 28198 ft | 471 kts | 291° |
| 2026-05-05 17:17 | -24.33285 | -39.77623 | 28195 ft | 471 kts | 291° |
| 2026-05-05 17:18 | -24.30628 | -39.84163 | 28197 ft | 471 kts | 291° |
| 2026-05-05 17:18 | -24.27948 | -39.90748 | 28197 ft | 472 kts | 291° |
| 2026-05-05 17:19 | -24.25293 | -39.97263 | 28195 ft | 472 kts | 291° |
| 2026-05-05 17:19 | -24.22609 | -40.03846 | 28194 ft | 471 kts | 291° |
| 2026-05-05 17:20 | -24.19940 | -40.10388 | 28191 ft | 470 kts | 291° |
| 2026-05-05 17:20 | -24.17287 | -40.16885 | 28192 ft | 470 kts | 291° |
| 2026-05-05 17:21 | -24.14588 | -40.23411 | 28185 ft | 471 kts | 294° |
| 2026-05-05 17:22 | -24.09334 | -40.32470 | 28183 ft | 474 kts | 305° |
| 2026-05-05 17:22 | -24.05280 | -40.38164 | 28177 ft | 473 kts | 305° |
| 2026-05-05 17:23 | -24.01217 | -40.43847 | 28178 ft | 474 kts | 305° |
| 2026-05-05 17:23 | -23.97176 | -40.49507 | 28174 ft | 474 kts | 305° |
| 2026-05-05 17:24 | -23.93111 | -40.55201 | 28168 ft | 474 kts | 305° |
| 2026-05-05 17:24 | -23.89049 | -40.60886 | 28161 ft | 474 kts | 305° |
| 2026-05-05 17:25 | -23.85007 | -40.66537 | 28160 ft | 474 kts | 306° |
| 2026-05-05 17:25 | -23.80946 | -40.72209 | 28160 ft | 474 kts | 306° |
| 2026-05-05 17:26 | -23.76874 | -40.77887 | 28157 ft | 474 kts | 305° |
| 2026-05-05 17:26 | -23.72835 | -40.83516 | 28155 ft | 473 kts | 305° |
| 2026-05-05 17:27 | -23.68785 | -40.89154 | 28154 ft | 474 kts | 305° |
| 2026-05-05 17:27 | -23.64703 | -40.94831 | 28154 ft | 474 kts | 305° |
| 2026-05-05 17:28 | -23.60653 | -41.00457 | 28154 ft | 473 kts | 305° |
| 2026-05-05 17:28 | -23.56568 | -41.06124 | 28151 ft | 473 kts | 305° |
| 2026-05-05 17:29 | -23.52515 | -41.11739 | 28151 ft | 473 kts | 305° |
| 2026-05-05 17:29 | -23.48432 | -41.17392 | 28151 ft | 473 kts | 305° |
| 2026-05-05 17:30 | -23.44362 | -41.23019 | 28149 ft | 473 kts | 305° |
| 2026-05-05 17:30 | -23.40296 | -41.28635 | 28149 ft | 473 kts | 305° |
| 2026-05-05 17:31 | -23.36231 | -41.34244 | 28151 ft | 473 kts | 305° |
| 2026-05-05 17:31 | -23.32164 | -41.39849 | 28149 ft | 473 kts | 305° |
| 2026-05-05 17:32 | -23.28083 | -41.45469 | 28150 ft | 473 kts | 305° |
| 2026-05-05 17:32 | -23.24008 | -41.51073 | 28151 ft | 472 kts | 305° |
| 2026-05-05 17:33 | -23.19929 | -41.56678 | 28146 ft | 472 kts | 305° |
| 2026-05-05 17:33 | -23.15860 | -41.62266 | 28145 ft | 473 kts | 305° |
| 2026-05-05 17:34 | -23.11788 | -41.67852 | 28142 ft | 472 kts | 306° |
| 2026-05-05 17:34 | -23.07713 | -41.73443 | 28139 ft | 473 kts | 306° |
| 2026-05-05 17:35 | -23.03627 | -41.79034 | 28143 ft | 473 kts | 306° |
| 2026-05-05 17:35 | -22.99509 | -41.84642 | 28143 ft | 473 kts | 306° |
| 2026-05-05 17:36 | -22.95427 | -41.90203 | 28140 ft | 473 kts | 306° |
| 2026-05-05 17:36 | -22.91320 | -41.95803 | 28139 ft | 473 kts | 306° |
| 2026-05-05 17:37 | -22.87228 | -42.01382 | 28138 ft | 473 kts | 306° |
| 2026-05-05 17:37 | -22.83242 | -42.07035 | 28126 ft | 470 kts | 297° |
| 2026-05-05 17:37 | -22.81917 | -42.10258 | 28134 ft | 466 kts | 285° |
| 2026-05-05 17:38 | -22.81286 | -42.13634 | 28139 ft | 461 kts | 273° |
| 2026-05-05 17:38 | -22.81265 | -42.20560 | 28142 ft | 460 kts | 267° |
| 2026-05-05 17:39 | -22.81340 | -42.27473 | 28146 ft | 460 kts | 267° |
| 2026-05-05 17:39 | -22.81395 | -42.34419 | 28148 ft | 460 kts | 267° |
| 2026-05-05 17:40 | -22.81439 | -42.41324 | 28151 ft | 460 kts | 267° |
| 2026-05-05 17:40 | -22.81477 | -42.48244 | 28146 ft | 459 kts | 267° |
| 2026-05-05 17:41 | -22.81514 | -42.55168 | 28146 ft | 459 kts | 267° |
| 2026-05-05 17:41 | -22.81546 | -42.62072 | 28142 ft | 459 kts | 267° |
| 2026-05-05 17:42 | -22.81568 | -42.69005 | 28138 ft | 460 kts | 268° |
| 2026-05-05 17:42 | -22.81586 | -42.75904 | 28132 ft | 460 kts | 268° |
| 2026-05-05 17:43 | -22.81605 | -42.82845 | 28131 ft | 460 kts | 268° |
| 2026-05-05 17:43 | -22.81624 | -42.89740 | 28137 ft | 460 kts | 268° |
| 2026-05-05 17:44 | -22.81638 | -42.96682 | 28129 ft | 459 kts | 268° |
| 2026-05-05 17:44 | -22.81650 | -43.03572 | 28127 ft | 459 kts | 268° |
| 2026-05-05 17:45 | -22.81661 | -43.10472 | 28121 ft | 459 kts | 268° |
| 2026-05-05 17:45 | -22.81670 | -43.17389 | 28122 ft | 460 kts | 268° |
| 2026-05-05 17:46 | -22.81671 | -43.24350 | 28122 ft | 461 kts | 268° |
| 2026-05-05 17:46 | -22.81343 | -43.31271 | 28121 ft | 462 kts | 271° |
| 2026-05-05 17:47 | -22.80904 | -43.38197 | 28124 ft | 461 kts | 271° |
| 2026-05-05 17:47 | -22.80468 | -43.45088 | 28122 ft | 461 kts | 271° |
| 2026-05-05 17:48 | -22.80033 | -43.51997 | 28124 ft | 461 kts | 271° |
| 2026-05-05 17:48 | -22.79592 | -43.58916 | 28124 ft | 462 kts | 271° |
| 2026-05-05 17:49 | -22.79742 | -43.65826 | 28121 ft | 459 kts | 261° |
| 2026-05-05 17:49 | -22.81039 | -43.72555 | 28126 ft | 457 kts | 254° |
| 2026-05-05 17:50 | -22.82654 | -43.79227 | 28123 ft | 457 kts | 253° |
| 2026-05-05 17:50 | -22.84266 | -43.85896 | 28123 ft | 457 kts | 253° |
| 2026-05-05 17:51 | -22.85859 | -43.92550 | 28120 ft | 457 kts | 254° |
| 2026-05-05 17:51 | -22.87432 | -43.99180 | 28120 ft | 457 kts | 254° |
| 2026-05-05 17:52 | -22.88969 | -44.05866 | 28126 ft | 457 kts | 254° |
| 2026-05-05 17:52 | -22.90500 | -44.12556 | 28128 ft | 457 kts | 254° |
| 2026-05-05 17:53 | -22.92022 | -44.19200 | 28146 ft | 457 kts | 254° |
| 2026-05-05 17:53 | -22.93548 | -44.25865 | 28145 ft | 458 kts | 254° |
| 2026-05-05 17:54 | -22.95081 | -44.32574 | 28142 ft | 457 kts | 254° |
| 2026-05-05 17:54 | -22.96597 | -44.39222 | 28149 ft | 456 kts | 254° |
| 2026-05-05 17:55 | -22.98126 | -44.45931 | 28153 ft | 457 kts | 254° |
| 2026-05-05 17:55 | -22.99639 | -44.52587 | 28154 ft | 457 kts | 254° |
| 2026-05-05 17:56 | -23.01155 | -44.59276 | 28179 ft | 456 kts | 254° |
| 2026-05-05 17:56 | -23.02658 | -44.65928 | 28213 ft | 455 kts | 255° |
| 2026-05-05 17:57 | -23.04169 | -44.72643 | 28248 ft | 456 kts | 255° |
| 2026-05-05 17:57 | -23.05673 | -44.79345 | 28263 ft | 456 kts | 255° |
| 2026-05-05 17:58 | -23.07175 | -44.86027 | 28258 ft | 456 kts | 255° |
| 2026-05-05 17:58 | -23.08667 | -44.92680 | 28254 ft | 456 kts | 255° |
| 2026-05-05 17:59 | -23.10164 | -44.99366 | 28266 ft | 456 kts | 255° |
| 2026-05-05 17:59 | -23.11658 | -45.06052 | 28269 ft | 456 kts | 255° |
| 2026-05-05 17:59 | -23.12403 | -45.09396 | 28165 ft | 453 kts | 255° |
| 2026-05-05 18:00 | -23.13140 | -45.12702 | 27476 ft | 456 kts | 255° |
| 2026-05-05 18:00 | -23.13893 | -45.16082 | 26571 ft | 460 kts | 255° |
| 2026-05-05 18:00 | -23.14635 | -45.19416 | 25883 ft | 460 kts | 255° |
| 2026-05-05 18:00 | -23.15382 | -45.22775 | 25399 ft | 454 kts | 255° |
| 2026-05-05 18:01 | -23.16119 | -45.26094 | 24941 ft | 448 kts | 255° |
| 2026-05-05 18:01 | -23.16841 | -45.29346 | 24388 ft | 445 kts | 255° |
| 2026-05-05 18:01 | -23.17565 | -45.32610 | 23789 ft | 443 kts | 255° |
| 2026-05-05 18:01 | -23.18285 | -45.35862 | 23165 ft | 442 kts | 255° |
| 2026-05-05 18:02 | -23.18992 | -45.39062 | 22612 ft | 439 kts | 255° |
| 2026-05-05 18:02 | -23.19706 | -45.42286 | 22130 ft | 435 kts | 255° |
| 2026-05-05 18:02 | -23.20414 | -45.45477 | 21671 ft | 431 kts | 255° |
| 2026-05-05 18:02 | -23.21105 | -45.48595 | 21233 ft | 427 kts | 255° |
| 2026-05-05 18:03 | -23.21796 | -45.51714 | 20802 ft | 423 kts | 255° |
| 2026-05-05 18:03 | -23.22486 | -45.54812 | 20378 ft | 419 kts | 255° |
| 2026-05-05 18:03 | -23.23270 | -45.57839 | 19957 ft | 415 kts | 252° |
| 2026-05-05 18:03 | -23.24092 | -45.60838 | 19520 ft | 412 kts | 252° |
| 2026-05-05 18:04 | -23.24913 | -45.63800 | 19105 ft | 409 kts | 252° |
| 2026-05-05 18:04 | -23.25731 | -45.66752 | 18692 ft | 406 kts | 252° |
| 2026-05-05 18:04 | -23.26536 | -45.69661 | 18269 ft | 403 kts | 253° |
| 2026-05-05 18:04 | -23.27347 | -45.72595 | 17850 ft | 401 kts | 252° |
| 2026-05-05 18:05 | -23.28139 | -45.75469 | 17438 ft | 399 kts | 253° |
| 2026-05-05 18:05 | -23.28937 | -45.78359 | 17028 ft | 397 kts | 253° |
| 2026-05-05 18:05 | -23.29725 | -45.81220 | 16618 ft | 395 kts | 253° |
| 2026-05-05 18:05 | -23.30512 | -45.84083 | 16207 ft | 393 kts | 253° |
| 2026-05-05 18:06 | -23.31290 | -45.86918 | 15799 ft | 392 kts | 253° |
| 2026-05-05 18:06 | -23.31805 | -45.88796 | 15526 ft | 391 kts | 253° |
| 2026-05-05 18:06 | -23.32849 | -45.92568 | 15090 ft | 393 kts | 252° |
| 2026-05-05 18:06 | -23.33663 | -45.95441 | 15109 ft | 399 kts | 252° |
| 2026-05-05 18:07 | -23.34490 | -45.98353 | 15131 ft | 400 kts | 252° |
| 2026-05-05 18:07 | -23.35315 | -46.01266 | 15170 ft | 401 kts | 252° |
| 2026-05-05 18:07 | -23.36140 | -46.04175 | 15209 ft | 402 kts | 252° |
| 2026-05-05 18:07 | -23.36960 | -46.07073 | 15227 ft | 402 kts | 252° |
| 2026-05-05 18:08 | -23.37777 | -46.09967 | 15223 ft | 402 kts | 252° |
| 2026-05-05 18:08 | -23.38604 | -46.12889 | 15213 ft | 402 kts | 252° |
| 2026-05-05 18:08 | -23.39419 | -46.15781 | 15206 ft | 402 kts | 252° |
| 2026-05-05 18:08 | -23.40244 | -46.18705 | 15147 ft | 402 kts | 252° |
| 2026-05-05 18:09 | -23.41073 | -46.21647 | 14664 ft | 403 kts | 252° |
| 2026-05-05 18:09 | -23.41892 | -46.24557 | 14199 ft | 401 kts | 253° |
| 2026-05-05 18:09 | -23.42691 | -46.27449 | 13720 ft | 398 kts | 255° |
| 2026-05-05 18:09 | -23.42928 | -46.30419 | 13235 ft | 395 kts | 277° |
| 2026-05-05 18:10 | -23.42085 | -46.33234 | 12826 ft | 392 kts | 298° |
| 2026-05-05 18:10 | -23.40585 | -46.35668 | 12425 ft | 388 kts | 304° |
| 2026-05-05 18:10 | -23.39058 | -46.38083 | 12007 ft | 385 kts | 304° |
| 2026-05-05 18:10 | -23.37562 | -46.40509 | 11581 ft | 383 kts | 303° |
| 2026-05-05 18:11 | -23.36095 | -46.42920 | 11293 ft | 376 kts | 303° |
| 2026-05-05 18:11 | -23.34675 | -46.45268 | 11260 ft | 362 kts | 303° |
| 2026-05-05 18:11 | -23.33316 | -46.47518 | 11230 ft | 348 kts | 303° |
| 2026-05-05 18:11 | -23.32002 | -46.49692 | 10988 ft | 343 kts | 303° |
| 2026-05-05 18:12 | -23.30704 | -46.51837 | 10765 ft | 337 kts | 303° |
| 2026-05-05 18:12 | -23.29417 | -46.53965 | 10581 ft | 330 kts | 303° |
| 2026-05-05 18:12 | -23.28184 | -46.56000 | 10416 ft | 323 kts | 303° |
| 2026-05-05 18:12 | -23.26973 | -46.58070 | 10281 ft | 315 kts | 299° |
| 2026-05-05 18:13 | -23.26030 | -46.60181 | 10294 ft | 303 kts | 291° |
| 2026-05-05 18:13 | -23.25329 | -46.62293 | 10214 ft | 297 kts | 288° |
| 2026-05-05 18:13 | -23.24677 | -46.64440 | 9908 ft | 298 kts | 288° |
| 2026-05-05 18:13 | -23.24035 | -46.66569 | 9626 ft | 298 kts | 288° |
| 2026-05-05 18:14 | -23.23506 | -46.68790 | 9297 ft | 300 kts | 276° |
| 2026-05-05 18:14 | -23.23558 | -46.71050 | 9057 ft | 297 kts | 261° |
| 2026-05-05 18:14 | -23.23944 | -46.73218 | 8921 ft | 291 kts | 258° |
| 2026-05-05 18:14 | -23.24370 | -46.75372 | 8610 ft | 292 kts | 258° |
| 2026-05-05 18:15 | -23.24794 | -46.77548 | 8320 ft | 292 kts | 259° |
| 2026-05-05 18:15 | -23.25389 | -46.79631 | 8034 ft | 291 kts | 244° |
| 2026-05-05 18:15 | -23.26486 | -46.81445 | 7923 ft | 284 kts | 230° |
| 2026-05-05 18:15 | -23.27820 | -46.83089 | 7946 ft | 287 kts | 228° |
| 2026-05-05 18:16 | -23.29262 | -46.84560 | 7948 ft | 288 kts | 211° |
| 2026-05-05 18:16 | -23.31182 | -46.85270 | 7556 ft | 293 kts | 182° |
| 2026-05-05 18:16 | -23.33171 | -46.84906 | 7289 ft | 289 kts | 155° |
| 2026-05-05 18:16 | -23.34773 | -46.83672 | 7065 ft | 282 kts | 129° |
| 2026-05-05 18:17 | -23.35896 | -46.81925 | 6786 ft | 280 kts | 122° |
| 2026-05-05 18:17 | -23.36939 | -46.80136 | 6468 ft | 282 kts | 122° |
| 2026-05-05 18:17 | -23.38000 | -46.78325 | 6169 ft | 282 kts | 122° |
| 2026-05-05 18:17 | -23.39060 | -46.76543 | 6017 ft | 276 kts | 122° |
| 2026-05-05 18:18 | -23.40085 | -46.74838 | 6005 ft | 265 kts | 122° |
| 2026-05-05 18:18 | -23.41086 | -46.73180 | 6001 ft | 254 kts | 122° |
| 2026-05-05 18:18 | -23.42038 | -46.71607 | 6001 ft | 246 kts | 122° |
| 2026-05-05 18:18 | -23.42974 | -46.70066 | 5976 ft | 237 kts | 123° |
| 2026-05-05 18:19 | -23.43889 | -46.68599 | 5798 ft | 234 kts | 123° |
| 2026-05-05 18:19 | -23.44807 | -46.67142 | 5628 ft | 230 kts | 123° |
| 2026-05-05 18:19 | -23.45707 | -46.65713 | 5429 ft | 226 kts | 123° |
| 2026-05-05 18:19 | -23.46588 | -46.64310 | 5168 ft | 219 kts | 123° |
| 2026-05-05 18:20 | -23.47321 | -46.62912 | 4907 ft | 209 kts | 103° |
| 2026-05-05 18:20 | -23.47335 | -46.61369 | 4667 ft | 202 kts | 78° |
| 2026-05-05 18:20 | -23.46973 | -46.59892 | 4422 ft | 197 kts | 71° |
| 2026-05-05 18:20 | -23.46555 | -46.58524 | 4191 ft | 186 kts | 71° |
| 2026-05-05 18:21 | -23.46171 | -46.57198 | 3968 ft | 177 kts | 72° |
| 2026-05-05 18:21 | -23.45828 | -46.55936 | 3743 ft | 170 kts | 73° |
| 2026-05-05 18:21 | -23.45500 | -46.54707 | 3529 ft | 162 kts | 72° |
| 2026-05-05 18:21 | -23.45191 | -46.53558 | 3329 ft | 154 kts | 73° |
| 2026-05-05 18:22 | -23.44893 | -46.52454 | 3150 ft | 152 kts | 72° |
| 2026-05-05 18:22 | -23.44595 | -46.51344 | 2959 ft | 152 kts | 72° |
| 2026-05-05 18:22 | -23.44292 | -46.50252 | 2779 ft | 152 kts | 74° |
| 2026-05-05 18:22 | -23.44002 | -46.49143 | 2580 ft | 150 kts | 72° |
| 2026-05-05 18:23 | -23.43717 | -46.48072 | 2485 ft | 140 kts | 73° |
| 2026-05-05 18:23 | -23.43441 | -46.47013 | 2748 ft | 154 kts | 74° |
| 2026-05-05 18:23 | -23.43142 | -46.45892 | 3311 ft | 153 kts | 73° |
| 2026-05-05 18:23 | -23.42844 | -46.44772 | 3785 ft | 156 kts | 73° |
| 2026-05-05 18:24 | -23.42534 | -46.43604 | 4009 ft | 169 kts | 76° |
| 2026-05-05 18:24 | -23.42598 | -46.42263 | 4024 ft | 189 kts | 114° |
| 2026-05-05 18:24 | -23.43500 | -46.41175 | 4035 ft | 208 kts | 150° |
| 2026-05-05 18:24 | -23.44952 | -46.40825 | 4047 ft | 218 kts | 186° |
| 2026-05-05 18:25 | -23.46410 | -46.41473 | 4099 ft | 237 kts | 218° |
| 2026-05-05 18:25 | -23.47247 | -46.42273 | 4111 ft | 243 kts | 225° |
| 2026-05-05 18:25 | -23.48810 | -46.44069 | 4110 ft | 243 kts | 228° |
| 2026-05-05 18:25 | -23.49961 | -46.45455 | 4105 ft | 243 kts | 228° |
| 2026-05-05 18:26 | -23.50979 | -46.46923 | 4102 ft | 242 kts | 242° |
| 2026-05-05 18:26 | -23.51790 | -46.48588 | 4103 ft | 243 kts | 243° |
| 2026-05-05 18:26 | -23.52439 | -46.50269 | 4095 ft | 237 kts | 254° |
| 2026-05-05 18:26 | -23.52844 | -46.51960 | 4088 ft | 225 kts | 258° |
| 2026-05-05 18:27 | -23.53188 | -46.53594 | 4093 ft | 211 kts | 258° |
| 2026-05-05 18:27 | -23.53497 | -46.55106 | 4093 ft | 196 kts | 258° |
| 2026-05-05 18:27 | -23.53784 | -46.56512 | 4079 ft | 181 kts | 258° |
| 2026-05-05 18:27 | -23.54048 | -46.57810 | 4078 ft | 174 kts | 262° |
| 2026-05-05 18:28 | -23.52946 | -46.59885 | 4091 ft | 171 kts | 348° |
| 2026-05-05 18:28 | -23.51775 | -46.59819 | 4114 ft | 171 kts | 14° |
| 2026-05-05 18:28 | -23.50627 | -46.59581 | 4106 ft | 162 kts | 9° |
| 2026-05-05 18:29 | -23.49536 | -46.59409 | 4086 ft | 154 kts | 8° |
| 2026-05-05 18:29 | -23.48457 | -46.59248 | 4094 ft | 154 kts | 8° |
| 2026-05-05 18:29 | -23.47384 | -46.59079 | 4098 ft | 154 kts | 15° |
| 2026-05-05 18:29 | -23.46533 | -46.58412 | 4094 ft | 154 kts | 59° |
| 2026-05-05 18:30 | -23.46115 | -46.57312 | 3984 ft | 156 kts | 75° |
| 2026-05-05 18:30 | -23.45863 | -46.56164 | 3785 ft | 154 kts | 76° |
| 2026-05-05 18:30 | -23.45599 | -46.55036 | 3588 ft | 154 kts | 74° |
| 2026-05-05 18:30 | -23.45304 | -46.53913 | 3390 ft | 153 kts | 73° |
| 2026-05-05 18:31 | -23.44999 | -46.52805 | 3202 ft | 152 kts | 73° |
| 2026-05-05 18:31 | -23.44695 | -46.51694 | 3022 ft | 151 kts | 73° |
| 2026-05-05 18:31 | -23.44394 | -46.50603 | 2839 ft | 151 kts | 72° |
| 2026-05-05 18:31 | -23.44094 | -46.49503 | 2637 ft | 151 kts | 73° |
| 2026-05-05 18:32 | -23.43805 | -46.48410 | 2473 ft | 148 kts | 73° |
| 2026-05-05 18:32 | -23.43551 | -46.47465 | 2482 ft | 104 kts | 74° |
| 2026-05-05 18:32 | -23.43396 | -46.46898 | 2472 ft | 53 kts | 74° |
| 2026-05-05 18:32 | -23.43317 | -46.46603 | 2466 ft | 33 kts | 73° |
| 2026-05-05 18:33 | -23.43226 | -46.46382 | 2462 ft | 31 kts | 53° |
| 2026-05-05 18:33 | -23.43082 | -46.46220 | 2461 ft | 28 kts | 44° |
| 2026-05-05 18:33 | -23.42969 | -46.46140 | 2461 ft | 13 kts | 6° |
| 2026-05-05 18:33 | -23.42884 | -46.46161 | 2460 ft | 12 kts | 342° |
| 2026-05-05 18:34 | -23.42797 | -46.46189 | 2460 ft | 13 kts | 343° |
| 2026-05-05 18:34 | -23.42705 | -46.46218 | 2460 ft | 13 kts | 344° |
| 2026-05-05 18:34 | -23.42627 | -46.46259 | 2460 ft | 11 kts | 296° |
| 2026-05-05 18:34 | -23.42637 | -46.46352 | 2459 ft | 13 kts | 254° |
| 2026-05-05 18:35 | -23.42663 | -46.46450 | 2459 ft | 13 kts | 254° |
| 2026-05-05 18:35 | -23.42691 | -46.46555 | 2458 ft | 14 kts | 254° |
| 2026-05-05 18:35 | -23.42720 | -46.46663 | 2458 ft | 15 kts | 254° |
| 2026-05-05 18:35 | -23.42750 | -46.46775 | 2457 ft | 15 kts | 253° |
| 2026-05-05 18:36 | -23.42781 | -46.46889 | 2457 ft | 15 kts | 254° |
| 2026-05-05 18:36 | -23.42811 | -46.47000 | 2457 ft | 15 kts | 253° |
| 2026-05-05 18:36 | -23.42834 | -46.47083 | 2457 ft | 9 kts | 258° |
| 2026-05-05 18:36 | -23.42804 | -46.47133 | 2457 ft | 9 kts | 334° |
| 2026-05-05 18:37 | -23.42734 | -46.47157 | 2456 ft | 11 kts | 343° |
| 2026-05-05 18:37 | -23.42666 | -46.47182 | 2455 ft | 7 kts | 325° |
| 2026-05-05 18:37 | -23.42661 | -46.47240 | 2454 ft | 9 kts | 256° |
| 2026-05-05 18:37 | -23.42673 | -46.47287 | 2455 ft | 1 kts | 254° |
| 2026-05-05 18:38 | -23.42674 | -46.47293 | 2455 ft | 0 kts | 254° |